<?xml version="1.0" encoding="UTF-8" standalone="no" ?><gpx xmlns="http://www.topografix.com/GPX/1/1" xmlns:gpxx="http://www.garmin.com/xmlschemas/GpxExtensions/v3" xmlns:gpxtpx="http://www.garmin.com/xmlschemas/TrackPointExtension/v1" creator="Foretrex 301" version="1.1" xmlns:xsi="http://www.w3.org/2001/XMLSchema-instance" xsi:schemaLocation="http://www.topografix.com/GPX/1/1 http://www.topografix.com/GPX/1/1/gpx.xsd http://www.garmin.com/xmlschemas/GpxExtensions/v3 http://www.garmin.com/xmlschemas/GpxExtensions/v3/GpxExtensionsv3.xsd"><metadata><link href="http://www.garmin.com"><text>Garmin International</text></link><time>2011-09-21T17:43:58Z</time></metadata><trk><name>ACTIVE LOG: 21 SEP 2011 09:04</name><trkseg><trkpt lat="51.660321" lon="-2.375774"><ele>116.46</ele><time>2011-09-21T09:04:00Z</time></trkpt><trkpt lat="51.660325" lon="-2.375778"><ele>115.98</ele><time>2011-09-21T09:04:05Z</time></trkpt><trkpt lat="51.660366" lon="-2.375798"><ele>115.01</ele><time>2011-09-21T09:04:11Z</time></trkpt><trkpt lat="51.660361" lon="-2.375911"><ele>114.05</ele><time>2011-09-21T09:04:18Z</time></trkpt><trkpt lat="51.660332" lon="-2.375982"><ele>113.09</ele><time>2011-09-21T09:04:23Z</time></trkpt><trkpt lat="51.660331" lon="-2.376080"><ele>112.13</ele><time>2011-09-21T09:04:29Z</time></trkpt><trkpt lat="51.660393" lon="-2.376200"><ele>112.61</ele><time>2011-09-21T09:04:36Z</time></trkpt><trkpt lat="51.660411" lon="-2.376249"><ele>113.09</ele><time>2011-09-21T09:04:39Z</time></trkpt><trkpt lat="51.660449" lon="-2.376288"><ele>111.65</ele><time>2011-09-21T09:04:46Z</time></trkpt><trkpt lat="51.660441" lon="-2.376275"><ele>111.17</ele><time>2011-09-21T09:05:03Z</time></trkpt><trkpt lat="51.660535" lon="-2.376232"><ele>111.17</ele><time>2011-09-21T09:05:25Z</time></trkpt><trkpt lat="51.660621" lon="-2.376214"><ele>111.17</ele><time>2011-09-21T09:05:28Z</time></trkpt><trkpt lat="51.660699" lon="-2.376211"><ele>111.17</ele><time>2011-09-21T09:05:35Z</time></trkpt><trkpt lat="51.660715" lon="-2.376185"><ele>111.17</ele><time>2011-09-21T09:05:37Z</time></trkpt><trkpt lat="51.660828" lon="-2.376107"><ele>110.69</ele><time>2011-09-21T09:05:43Z</time></trkpt><trkpt lat="51.660847" lon="-2.376078"><ele>110.21</ele><time>2011-09-21T09:05:50Z</time></trkpt><trkpt lat="51.660800" lon="-2.376120"><ele>109.73</ele><time>2011-09-21T09:05:58Z</time></trkpt><trkpt lat="51.660758" lon="-2.376157"><ele>108.77</ele><time>2011-09-21T09:06:06Z</time></trkpt><trkpt lat="51.660753" lon="-2.376164"><ele>108.77</ele><time>2011-09-21T09:06:13Z</time></trkpt><trkpt lat="51.660644" lon="-2.376227"><ele>107.81</ele><time>2011-09-21T09:06:39Z</time></trkpt><trkpt lat="51.660696" lon="-2.376129"><ele>106.36</ele><time>2011-09-21T09:07:08Z</time></trkpt><trkpt lat="51.660667" lon="-2.376113"><ele>104.44</ele><time>2011-09-21T09:07:28Z</time></trkpt><trkpt lat="51.660542" lon="-2.376073"><ele>104.44</ele><time>2011-09-21T09:07:36Z</time></trkpt><trkpt lat="51.660537" lon="-2.376056"><ele>103.96</ele><time>2011-09-21T09:07:38Z</time></trkpt><trkpt lat="51.660559" lon="-2.375918"><ele>102.52</ele><time>2011-09-21T09:07:46Z</time></trkpt><trkpt lat="51.660560" lon="-2.375906"><ele>102.52</ele><time>2011-09-21T09:07:47Z</time></trkpt><trkpt lat="51.660572" lon="-2.375996"><ele>100.60</ele><time>2011-09-21T09:07:55Z</time></trkpt><trkpt lat="51.660540" lon="-2.376073"><ele>101.56</ele><time>2011-09-21T09:08:01Z</time></trkpt><trkpt lat="51.660435" lon="-2.376212"><ele>112.13</ele><time>2011-09-21T09:08:11Z</time></trkpt><trkpt lat="51.660430" lon="-2.376217"><ele>112.61</ele><time>2011-09-21T09:08:26Z</time></trkpt><trkpt lat="51.660411" lon="-2.376263"><ele>115.50</ele><time>2011-09-21T09:08:33Z</time></trkpt><trkpt lat="51.660419" lon="-2.376238"><ele>114.53</ele><time>2011-09-21T09:09:30Z</time></trkpt><trkpt lat="51.660396" lon="-2.376232"><ele>114.05</ele><time>2011-09-21T09:09:35Z</time></trkpt><trkpt lat="51.660392" lon="-2.376237"><ele>114.05</ele><time>2011-09-21T09:09:36Z</time></trkpt><trkpt lat="51.660368" lon="-2.376303"><ele>113.57</ele><time>2011-09-21T09:09:41Z</time></trkpt><trkpt lat="51.660290" lon="-2.376404"><ele>113.57</ele><time>2011-09-21T09:09:50Z</time></trkpt><trkpt lat="51.660273" lon="-2.376424"><ele>113.57</ele><time>2011-09-21T09:09:52Z</time></trkpt><trkpt lat="51.660219" lon="-2.376511"><ele>114.53</ele><time>2011-09-21T09:09:59Z</time></trkpt><trkpt lat="51.660180" lon="-2.376549"><ele>115.50</ele><time>2011-09-21T09:10:09Z</time></trkpt><trkpt lat="51.660177" lon="-2.376564"><ele>115.50</ele><time>2011-09-21T09:10:11Z</time></trkpt><trkpt lat="51.660159" lon="-2.376611"><ele>115.98</ele><time>2011-09-21T09:10:14Z</time></trkpt><trkpt lat="51.660064" lon="-2.376655"><ele>116.94</ele><time>2011-09-21T09:10:23Z</time></trkpt><trkpt lat="51.659924" lon="-2.376628"><ele>117.90</ele><time>2011-09-21T09:10:35Z</time></trkpt><trkpt lat="51.659795" lon="-2.376628"><ele>118.86</ele><time>2011-09-21T09:10:47Z</time></trkpt><trkpt lat="51.659693" lon="-2.376638"><ele>119.34</ele><time>2011-09-21T09:10:57Z</time></trkpt><trkpt lat="51.659587" lon="-2.376653"><ele>119.82</ele><time>2011-09-21T09:11:07Z</time></trkpt><trkpt lat="51.659520" lon="-2.376661"><ele>119.82</ele><time>2011-09-21T09:11:13Z</time></trkpt><trkpt lat="51.659458" lon="-2.376673"><ele>121.26</ele><time>2011-09-21T09:11:21Z</time></trkpt><trkpt lat="51.659411" lon="-2.376585"><ele>122.71</ele><time>2011-09-21T09:11:30Z</time></trkpt><trkpt lat="51.659402" lon="-2.376558"><ele>123.67</ele><time>2011-09-21T09:11:38Z</time></trkpt><trkpt lat="51.659402" lon="-2.376458"><ele>124.15</ele><time>2011-09-21T09:11:46Z</time></trkpt><trkpt lat="51.659387" lon="-2.376348"><ele>126.07</ele><time>2011-09-21T09:11:54Z</time></trkpt><trkpt lat="51.659358" lon="-2.376243"><ele>127.03</ele><time>2011-09-21T09:12:01Z</time></trkpt><trkpt lat="51.659316" lon="-2.376137"><ele>126.55</ele><time>2011-09-21T09:12:10Z</time></trkpt><trkpt lat="51.659303" lon="-2.376053"><ele>127.99</ele><time>2011-09-21T09:12:20Z</time></trkpt><trkpt lat="51.659314" lon="-2.375824"><ele>131.84</ele><time>2011-09-21T09:12:34Z</time></trkpt><trkpt lat="51.659333" lon="-2.375763"><ele>133.28</ele><time>2011-09-21T09:12:38Z</time></trkpt><trkpt lat="51.659355" lon="-2.375590"><ele>134.72</ele><time>2011-09-21T09:12:49Z</time></trkpt><trkpt lat="51.659348" lon="-2.375491"><ele>136.16</ele><time>2011-09-21T09:12:59Z</time></trkpt><trkpt lat="51.659405" lon="-2.375380"><ele>138.09</ele><time>2011-09-21T09:13:08Z</time></trkpt><trkpt lat="51.659426" lon="-2.375234"><ele>139.53</ele><time>2011-09-21T09:13:19Z</time></trkpt><trkpt lat="51.659453" lon="-2.375125"><ele>140.97</ele><time>2011-09-21T09:13:31Z</time></trkpt><trkpt lat="51.659473" lon="-2.374990"><ele>143.85</ele><time>2011-09-21T09:13:43Z</time></trkpt><trkpt lat="51.659463" lon="-2.374810"><ele>147.70</ele><time>2011-09-21T09:13:56Z</time></trkpt><trkpt lat="51.659468" lon="-2.374642"><ele>151.06</ele><time>2011-09-21T09:14:08Z</time></trkpt><trkpt lat="51.659499" lon="-2.374599"><ele>152.51</ele><time>2011-09-21T09:14:15Z</time></trkpt><trkpt lat="51.659532" lon="-2.374460"><ele>152.99</ele><time>2011-09-21T09:14:36Z</time></trkpt><trkpt lat="51.659586" lon="-2.374347"><ele>154.91</ele><time>2011-09-21T09:14:47Z</time></trkpt><trkpt lat="51.659541" lon="-2.374184"><ele>157.31</ele><time>2011-09-21T09:14:58Z</time></trkpt><trkpt lat="51.659640" lon="-2.374013"><ele>157.79</ele><time>2011-09-21T09:15:09Z</time></trkpt><trkpt lat="51.659626" lon="-2.373921"><ele>159.72</ele><time>2011-09-21T09:15:20Z</time></trkpt><trkpt lat="51.659637" lon="-2.373726"><ele>162.60</ele><time>2011-09-21T09:15:34Z</time></trkpt><trkpt lat="51.659618" lon="-2.373577"><ele>166.93</ele><time>2011-09-21T09:15:47Z</time></trkpt><trkpt lat="51.659629" lon="-2.373419"><ele>167.89</ele><time>2011-09-21T09:15:57Z</time></trkpt><trkpt lat="51.659610" lon="-2.373328"><ele>169.33</ele><time>2011-09-21T09:16:08Z</time></trkpt><trkpt lat="51.659624" lon="-2.373175"><ele>170.77</ele><time>2011-09-21T09:16:29Z</time></trkpt><trkpt lat="51.659708" lon="-2.373026"><ele>173.17</ele><time>2011-09-21T09:16:39Z</time></trkpt><trkpt lat="51.659771" lon="-2.372831"><ele>174.14</ele><time>2011-09-21T09:16:51Z</time></trkpt><trkpt lat="51.659750" lon="-2.372716"><ele>175.10</ele><time>2011-09-21T09:17:03Z</time></trkpt><trkpt lat="51.659779" lon="-2.372603"><ele>177.50</ele><time>2011-09-21T09:17:14Z</time></trkpt><trkpt lat="51.659827" lon="-2.372532"><ele>176.54</ele><time>2011-09-21T09:17:24Z</time></trkpt><trkpt lat="51.659903" lon="-2.372404"><ele>176.06</ele><time>2011-09-21T09:17:36Z</time></trkpt><trkpt lat="51.659947" lon="-2.372283"><ele>172.21</ele><time>2011-09-21T09:17:45Z</time></trkpt><trkpt lat="51.660011" lon="-2.372181"><ele>172.69</ele><time>2011-09-21T09:17:56Z</time></trkpt><trkpt lat="51.660066" lon="-2.372050"><ele>172.21</ele><time>2011-09-21T09:18:07Z</time></trkpt><trkpt lat="51.660136" lon="-2.371934"><ele>173.66</ele><time>2011-09-21T09:18:18Z</time></trkpt><trkpt lat="51.660180" lon="-2.371829"><ele>177.02</ele><time>2011-09-21T09:18:29Z</time></trkpt><trkpt lat="51.660247" lon="-2.371668"><ele>177.98</ele><time>2011-09-21T09:18:42Z</time></trkpt><trkpt lat="51.660295" lon="-2.371503"><ele>179.42</ele><time>2011-09-21T09:18:56Z</time></trkpt><trkpt lat="51.660285" lon="-2.371463"><ele>178.46</ele><time>2011-09-21T09:19:14Z</time></trkpt><trkpt lat="51.660289" lon="-2.371392"><ele>179.90</ele><time>2011-09-21T09:19:40Z</time></trkpt><trkpt lat="51.660395" lon="-2.371234"><ele>182.79</ele><time>2011-09-21T09:20:06Z</time></trkpt><trkpt lat="51.660432" lon="-2.371097"><ele>182.31</ele><time>2011-09-21T09:20:21Z</time></trkpt><trkpt lat="51.660515" lon="-2.370920"><ele>181.35</ele><time>2011-09-21T09:20:39Z</time></trkpt><trkpt lat="51.660545" lon="-2.370743"><ele>187.59</ele><time>2011-09-21T09:20:56Z</time></trkpt><trkpt lat="51.660562" lon="-2.370613"><ele>190.96</ele><time>2011-09-21T09:21:07Z</time></trkpt><trkpt lat="51.660550" lon="-2.370548"><ele>191.92</ele><time>2011-09-21T09:21:15Z</time></trkpt><trkpt lat="51.660531" lon="-2.370412"><ele>192.40</ele><time>2011-09-21T09:21:27Z</time></trkpt><trkpt lat="51.660524" lon="-2.370327"><ele>192.40</ele><time>2011-09-21T09:21:35Z</time></trkpt><trkpt lat="51.660521" lon="-2.370147"><ele>194.32</ele><time>2011-09-21T09:21:48Z</time></trkpt><trkpt lat="51.660495" lon="-2.369988"><ele>195.28</ele><time>2011-09-21T09:21:58Z</time></trkpt><trkpt lat="51.660400" lon="-2.369874"><ele>194.80</ele><time>2011-09-21T09:22:09Z</time></trkpt><trkpt lat="51.660399" lon="-2.369772"><ele>192.88</ele><time>2011-09-21T09:22:17Z</time></trkpt><trkpt lat="51.660392" lon="-2.369641"><ele>189.04</ele><time>2011-09-21T09:22:25Z</time></trkpt><trkpt lat="51.660375" lon="-2.369532"><ele>187.59</ele><time>2011-09-21T09:22:37Z</time></trkpt><trkpt lat="51.660367" lon="-2.369498"><ele>187.59</ele><time>2011-09-21T09:22:46Z</time></trkpt><trkpt lat="51.660328" lon="-2.369458"><ele>188.56</ele><time>2011-09-21T09:22:54Z</time></trkpt><trkpt lat="51.660288" lon="-2.369328"><ele>190.00</ele><time>2011-09-21T09:23:04Z</time></trkpt><trkpt lat="51.660199" lon="-2.369248"><ele>188.56</ele><time>2011-09-21T09:23:13Z</time></trkpt><trkpt lat="51.660084" lon="-2.369143"><ele>190.48</ele><time>2011-09-21T09:23:23Z</time></trkpt><trkpt lat="51.659990" lon="-2.369129"><ele>190.48</ele><time>2011-09-21T09:23:31Z</time></trkpt><trkpt lat="51.659908" lon="-2.369064"><ele>191.92</ele><time>2011-09-21T09:23:42Z</time></trkpt><trkpt lat="51.659838" lon="-2.368975"><ele>192.40</ele><time>2011-09-21T09:23:51Z</time></trkpt><trkpt lat="51.659746" lon="-2.368863"><ele>194.32</ele><time>2011-09-21T09:24:01Z</time></trkpt><trkpt lat="51.659641" lon="-2.368789"><ele>196.25</ele><time>2011-09-21T09:24:10Z</time></trkpt><trkpt lat="51.659540" lon="-2.368773"><ele>197.21</ele><time>2011-09-21T09:24:19Z</time></trkpt><trkpt lat="51.659468" lon="-2.368753"><ele>197.21</ele><time>2011-09-21T09:24:28Z</time></trkpt><trkpt lat="51.659395" lon="-2.368730"><ele>195.77</ele><time>2011-09-21T09:24:37Z</time></trkpt><trkpt lat="51.659349" lon="-2.368730"><ele>194.80</ele><time>2011-09-21T09:24:45Z</time></trkpt><trkpt lat="51.659325" lon="-2.368740"><ele>194.80</ele><time>2011-09-21T09:24:55Z</time></trkpt><trkpt lat="51.659328" lon="-2.368747"><ele>195.28</ele><time>2011-09-21T09:25:16Z</time></trkpt><trkpt lat="51.659281" lon="-2.368707"><ele>195.77</ele><time>2011-09-21T09:25:52Z</time></trkpt><trkpt lat="51.659186" lon="-2.368616"><ele>195.77</ele><time>2011-09-21T09:26:03Z</time></trkpt><trkpt lat="51.659071" lon="-2.368565"><ele>195.77</ele><time>2011-09-21T09:26:14Z</time></trkpt><trkpt lat="51.658996" lon="-2.368539"><ele>195.77</ele><time>2011-09-21T09:26:22Z</time></trkpt><trkpt lat="51.658897" lon="-2.368496"><ele>196.25</ele><time>2011-09-21T09:26:32Z</time></trkpt><trkpt lat="51.658806" lon="-2.368460"><ele>196.73</ele><time>2011-09-21T09:26:41Z</time></trkpt><trkpt lat="51.658717" lon="-2.368434"><ele>196.73</ele><time>2011-09-21T09:26:50Z</time></trkpt><trkpt lat="51.658622" lon="-2.368418"><ele>197.21</ele><time>2011-09-21T09:26:59Z</time></trkpt><trkpt lat="51.658533" lon="-2.368401"><ele>196.73</ele><time>2011-09-21T09:27:09Z</time></trkpt><trkpt lat="51.658449" lon="-2.368382"><ele>195.77</ele><time>2011-09-21T09:27:18Z</time></trkpt><trkpt lat="51.658378" lon="-2.368367"><ele>195.28</ele><time>2011-09-21T09:27:25Z</time></trkpt><trkpt lat="51.658278" lon="-2.368330"><ele>193.84</ele><time>2011-09-21T09:27:35Z</time></trkpt><trkpt lat="51.658194" lon="-2.368303"><ele>193.36</ele><time>2011-09-21T09:27:44Z</time></trkpt><trkpt lat="51.658105" lon="-2.368285"><ele>193.36</ele><time>2011-09-21T09:27:53Z</time></trkpt><trkpt lat="51.657996" lon="-2.368243"><ele>194.32</ele><time>2011-09-21T09:28:04Z</time></trkpt><trkpt lat="51.657906" lon="-2.368197"><ele>193.36</ele><time>2011-09-21T09:28:13Z</time></trkpt><trkpt lat="51.657807" lon="-2.368138"><ele>192.40</ele><time>2011-09-21T09:28:23Z</time></trkpt><trkpt lat="51.657715" lon="-2.368086"><ele>192.40</ele><time>2011-09-21T09:28:32Z</time></trkpt><trkpt lat="51.657644" lon="-2.368053"><ele>192.88</ele><time>2011-09-21T09:28:40Z</time></trkpt><trkpt lat="51.657638" lon="-2.368055"><ele>192.88</ele><time>2011-09-21T09:28:41Z</time></trkpt><trkpt lat="51.657591" lon="-2.368114"><ele>193.84</ele><time>2011-09-21T09:28:47Z</time></trkpt><trkpt lat="51.657473" lon="-2.368181"><ele>194.80</ele><time>2011-09-21T09:28:59Z</time></trkpt><trkpt lat="51.657418" lon="-2.368199"><ele>195.28</ele><time>2011-09-21T09:29:07Z</time></trkpt><trkpt lat="51.657407" lon="-2.368218"><ele>195.77</ele><time>2011-09-21T09:29:13Z</time></trkpt><trkpt lat="51.657392" lon="-2.368277"><ele>194.80</ele><time>2011-09-21T09:29:19Z</time></trkpt><trkpt lat="51.657395" lon="-2.368307"><ele>193.84</ele><time>2011-09-21T09:29:28Z</time></trkpt><trkpt lat="51.657399" lon="-2.368345"><ele>190.96</ele><time>2011-09-21T09:29:37Z</time></trkpt><trkpt lat="51.657402" lon="-2.368365"><ele>190.00</ele><time>2011-09-21T09:29:48Z</time></trkpt><trkpt lat="51.657404" lon="-2.368366"><ele>190.00</ele><time>2011-09-21T09:30:05Z</time></trkpt><trkpt lat="51.657404" lon="-2.368363"><ele>189.52</ele><time>2011-09-21T09:30:22Z</time></trkpt><trkpt lat="51.657412" lon="-2.368384"><ele>190.00</ele><time>2011-09-21T09:30:36Z</time></trkpt><trkpt lat="51.657414" lon="-2.368366"><ele>190.00</ele><time>2011-09-21T09:30:50Z</time></trkpt><trkpt lat="51.657413" lon="-2.368372"><ele>190.96</ele><time>2011-09-21T09:31:02Z</time></trkpt><trkpt lat="51.657416" lon="-2.368343"><ele>190.00</ele><time>2011-09-21T09:31:16Z</time></trkpt><trkpt lat="51.657373" lon="-2.368156"><ele>189.52</ele><time>2011-09-21T09:31:27Z</time></trkpt><trkpt lat="51.657275" lon="-2.368034"><ele>189.04</ele><time>2011-09-21T09:31:37Z</time></trkpt><trkpt lat="51.657217" lon="-2.367966"><ele>188.56</ele><time>2011-09-21T09:31:43Z</time></trkpt><trkpt lat="51.657147" lon="-2.367903"><ele>189.04</ele><time>2011-09-21T09:31:51Z</time></trkpt><trkpt lat="51.657034" lon="-2.367796"><ele>188.56</ele><time>2011-09-21T09:32:01Z</time></trkpt><trkpt lat="51.656962" lon="-2.367715"><ele>188.08</ele><time>2011-09-21T09:32:09Z</time></trkpt><trkpt lat="51.656875" lon="-2.367580"><ele>187.59</ele><time>2011-09-21T09:32:20Z</time></trkpt><trkpt lat="51.656776" lon="-2.367456"><ele>188.08</ele><time>2011-09-21T09:32:31Z</time></trkpt><trkpt lat="51.656759" lon="-2.367433"><ele>188.08</ele><time>2011-09-21T09:32:33Z</time></trkpt><trkpt lat="51.656666" lon="-2.367298"><ele>188.08</ele><time>2011-09-21T09:32:42Z</time></trkpt><trkpt lat="51.656622" lon="-2.367154"><ele>188.08</ele><time>2011-09-21T09:32:51Z</time></trkpt><trkpt lat="51.656554" lon="-2.367082"><ele>185.19</ele><time>2011-09-21T09:32:59Z</time></trkpt><trkpt lat="51.656478" lon="-2.367019"><ele>184.23</ele><time>2011-09-21T09:33:07Z</time></trkpt><trkpt lat="51.656409" lon="-2.366982"><ele>185.19</ele><time>2011-09-21T09:33:14Z</time></trkpt><trkpt lat="51.656329" lon="-2.366941"><ele>185.67</ele><time>2011-09-21T09:33:21Z</time></trkpt><trkpt lat="51.656230" lon="-2.366854"><ele>187.11</ele><time>2011-09-21T09:33:29Z</time></trkpt><trkpt lat="51.656156" lon="-2.366734"><ele>190.96</ele><time>2011-09-21T09:33:39Z</time></trkpt><trkpt lat="51.656118" lon="-2.366652"><ele>192.40</ele><time>2011-09-21T09:33:45Z</time></trkpt><trkpt lat="51.656064" lon="-2.366538"><ele>193.84</ele><time>2011-09-21T09:33:54Z</time></trkpt><trkpt lat="51.656013" lon="-2.366493"><ele>195.28</ele><time>2011-09-21T09:34:00Z</time></trkpt><trkpt lat="51.656010" lon="-2.366442"><ele>195.77</ele><time>2011-09-21T09:34:18Z</time></trkpt><trkpt lat="51.655905" lon="-2.366388"><ele>198.17</ele><time>2011-09-21T09:34:25Z</time></trkpt><trkpt lat="51.655823" lon="-2.366285"><ele>199.61</ele><time>2011-09-21T09:34:33Z</time></trkpt><trkpt lat="51.655838" lon="-2.366201"><ele>200.57</ele><time>2011-09-21T09:34:41Z</time></trkpt><trkpt lat="51.655818" lon="-2.366171"><ele>201.53</ele><time>2011-09-21T09:34:51Z</time></trkpt><trkpt lat="51.655818" lon="-2.366052"><ele>202.98</ele><time>2011-09-21T09:35:00Z</time></trkpt><trkpt lat="51.655817" lon="-2.365897"><ele>205.38</ele><time>2011-09-21T09:35:10Z</time></trkpt><trkpt lat="51.655795" lon="-2.365782"><ele>205.86</ele><time>2011-09-21T09:35:17Z</time></trkpt><trkpt lat="51.655790" lon="-2.365676"><ele>206.82</ele><time>2011-09-21T09:35:26Z</time></trkpt><trkpt lat="51.655755" lon="-2.365558"><ele>206.82</ele><time>2011-09-21T09:35:34Z</time></trkpt><trkpt lat="51.655724" lon="-2.365450"><ele>207.78</ele><time>2011-09-21T09:35:43Z</time></trkpt><trkpt lat="51.655672" lon="-2.365362"><ele>208.26</ele><time>2011-09-21T09:35:55Z</time></trkpt><trkpt lat="51.655635" lon="-2.365273"><ele>207.30</ele><time>2011-09-21T09:36:05Z</time></trkpt><trkpt lat="51.655577" lon="-2.365191"><ele>206.34</ele><time>2011-09-21T09:36:13Z</time></trkpt><trkpt lat="51.655508" lon="-2.365112"><ele>205.38</ele><time>2011-09-21T09:36:21Z</time></trkpt><trkpt lat="51.655458" lon="-2.365006"><ele>204.42</ele><time>2011-09-21T09:36:30Z</time></trkpt><trkpt lat="51.655397" lon="-2.364927"><ele>203.94</ele><time>2011-09-21T09:36:39Z</time></trkpt><trkpt lat="51.655347" lon="-2.364831"><ele>203.94</ele><time>2011-09-21T09:36:47Z</time></trkpt><trkpt lat="51.655307" lon="-2.364738"><ele>203.46</ele><time>2011-09-21T09:36:57Z</time></trkpt><trkpt lat="51.655266" lon="-2.364653"><ele>204.42</ele><time>2011-09-21T09:37:06Z</time></trkpt><trkpt lat="51.655195" lon="-2.364558"><ele>203.46</ele><time>2011-09-21T09:37:18Z</time></trkpt><trkpt lat="51.655125" lon="-2.364453"><ele>202.49</ele><time>2011-09-21T09:37:28Z</time></trkpt><trkpt lat="51.655086" lon="-2.364421"><ele>202.49</ele><time>2011-09-21T09:37:40Z</time></trkpt><trkpt lat="51.655033" lon="-2.364389"><ele>204.90</ele><time>2011-09-21T09:37:53Z</time></trkpt><trkpt lat="51.654965" lon="-2.364353"><ele>205.38</ele><time>2011-09-21T09:38:04Z</time></trkpt><trkpt lat="51.654890" lon="-2.364278"><ele>204.90</ele><time>2011-09-21T09:38:15Z</time></trkpt><trkpt lat="51.654849" lon="-2.364226"><ele>204.90</ele><time>2011-09-21T09:38:24Z</time></trkpt><trkpt lat="51.654791" lon="-2.364126"><ele>204.42</ele><time>2011-09-21T09:38:34Z</time></trkpt><trkpt lat="51.654728" lon="-2.364056"><ele>202.98</ele><time>2011-09-21T09:38:44Z</time></trkpt><trkpt lat="51.654705" lon="-2.363998"><ele>204.42</ele><time>2011-09-21T09:38:54Z</time></trkpt><trkpt lat="51.654643" lon="-2.363929"><ele>203.94</ele><time>2011-09-21T09:39:02Z</time></trkpt><trkpt lat="51.654621" lon="-2.363836"><ele>203.46</ele><time>2011-09-21T09:39:10Z</time></trkpt><trkpt lat="51.654606" lon="-2.363777"><ele>201.05</ele><time>2011-09-21T09:39:22Z</time></trkpt><trkpt lat="51.654549" lon="-2.363738"><ele>200.09</ele><time>2011-09-21T09:39:30Z</time></trkpt><trkpt lat="51.654491" lon="-2.363695"><ele>199.61</ele><time>2011-09-21T09:39:38Z</time></trkpt><trkpt lat="51.654457" lon="-2.363631"><ele>197.69</ele><time>2011-09-21T09:39:48Z</time></trkpt><trkpt lat="51.654413" lon="-2.363559"><ele>195.28</ele><time>2011-09-21T09:39:57Z</time></trkpt><trkpt lat="51.654379" lon="-2.363481"><ele>194.32</ele><time>2011-09-21T09:40:06Z</time></trkpt><trkpt lat="51.654356" lon="-2.363435"><ele>194.80</ele><time>2011-09-21T09:40:16Z</time></trkpt><trkpt lat="51.654295" lon="-2.363367"><ele>196.25</ele><time>2011-09-21T09:40:42Z</time></trkpt><trkpt lat="51.654236" lon="-2.363283"><ele>198.65</ele><time>2011-09-21T09:40:52Z</time></trkpt><trkpt lat="51.654141" lon="-2.363218"><ele>199.13</ele><time>2011-09-21T09:41:01Z</time></trkpt><trkpt lat="51.654055" lon="-2.363141"><ele>199.13</ele><time>2011-09-21T09:41:11Z</time></trkpt><trkpt lat="51.653976" lon="-2.362992"><ele>199.61</ele><time>2011-09-21T09:41:23Z</time></trkpt><trkpt lat="51.653936" lon="-2.362923"><ele>199.61</ele><time>2011-09-21T09:41:28Z</time></trkpt><trkpt lat="51.653873" lon="-2.362865"><ele>201.05</ele><time>2011-09-21T09:41:36Z</time></trkpt><trkpt lat="51.653775" lon="-2.362766"><ele>202.01</ele><time>2011-09-21T09:41:46Z</time></trkpt><trkpt lat="51.653762" lon="-2.362689"><ele>200.09</ele><time>2011-09-21T09:41:55Z</time></trkpt><trkpt lat="51.653770" lon="-2.362666"><ele>200.57</ele><time>2011-09-21T09:42:03Z</time></trkpt><trkpt lat="51.653752" lon="-2.362619"><ele>201.53</ele><time>2011-09-21T09:42:09Z</time></trkpt><trkpt lat="51.653714" lon="-2.362560"><ele>201.05</ele><time>2011-09-21T09:42:15Z</time></trkpt><trkpt lat="51.653657" lon="-2.362441"><ele>200.57</ele><time>2011-09-21T09:42:28Z</time></trkpt><trkpt lat="51.653574" lon="-2.362314"><ele>200.09</ele><time>2011-09-21T09:42:39Z</time></trkpt><trkpt lat="51.653532" lon="-2.362242"><ele>200.09</ele><time>2011-09-21T09:42:48Z</time></trkpt><trkpt lat="51.653478" lon="-2.362165"><ele>199.13</ele><time>2011-09-21T09:42:58Z</time></trkpt><trkpt lat="51.653420" lon="-2.362114"><ele>199.13</ele><time>2011-09-21T09:43:06Z</time></trkpt><trkpt lat="51.653376" lon="-2.362034"><ele>197.21</ele><time>2011-09-21T09:43:13Z</time></trkpt><trkpt lat="51.653278" lon="-2.361943"><ele>195.28</ele><time>2011-09-21T09:43:23Z</time></trkpt><trkpt lat="51.653178" lon="-2.361875"><ele>193.84</ele><time>2011-09-21T09:43:32Z</time></trkpt><trkpt lat="51.653112" lon="-2.361832"><ele>192.88</ele><time>2011-09-21T09:43:41Z</time></trkpt><trkpt lat="51.653069" lon="-2.361756"><ele>193.84</ele><time>2011-09-21T09:43:48Z</time></trkpt><trkpt lat="51.653013" lon="-2.361681"><ele>194.80</ele><time>2011-09-21T09:43:56Z</time></trkpt><trkpt lat="51.652989" lon="-2.361618"><ele>195.28</ele><time>2011-09-21T09:44:03Z</time></trkpt><trkpt lat="51.652951" lon="-2.361593"><ele>195.77</ele><time>2011-09-21T09:44:10Z</time></trkpt><trkpt lat="51.652880" lon="-2.361601"><ele>196.25</ele><time>2011-09-21T09:44:18Z</time></trkpt><trkpt lat="51.652814" lon="-2.361486"><ele>198.17</ele><time>2011-09-21T09:44:28Z</time></trkpt><trkpt lat="51.652786" lon="-2.361402"><ele>198.65</ele><time>2011-09-21T09:44:36Z</time></trkpt><trkpt lat="51.652717" lon="-2.361313"><ele>200.09</ele><time>2011-09-21T09:44:44Z</time></trkpt><trkpt lat="51.652622" lon="-2.361236"><ele>201.53</ele><time>2011-09-21T09:44:53Z</time></trkpt><trkpt lat="51.652528" lon="-2.361135"><ele>202.49</ele><time>2011-09-21T09:45:12Z</time></trkpt><trkpt lat="51.652463" lon="-2.361048"><ele>202.01</ele><time>2011-09-21T09:45:22Z</time></trkpt><trkpt lat="51.652410" lon="-2.360935"><ele>202.49</ele><time>2011-09-21T09:45:30Z</time></trkpt><trkpt lat="51.652332" lon="-2.360815"><ele>202.98</ele><time>2011-09-21T09:45:42Z</time></trkpt><trkpt lat="51.652296" lon="-2.360787"><ele>203.46</ele><time>2011-09-21T09:45:52Z</time></trkpt><trkpt lat="51.652283" lon="-2.360787"><ele>202.98</ele><time>2011-09-21T09:47:01Z</time></trkpt><trkpt lat="51.652229" lon="-2.360648"><ele>202.98</ele><time>2011-09-21T09:47:08Z</time></trkpt><trkpt lat="51.652175" lon="-2.360497"><ele>202.49</ele><time>2011-09-21T09:47:15Z</time></trkpt><trkpt lat="51.652039" lon="-2.360367"><ele>201.05</ele><time>2011-09-21T09:47:24Z</time></trkpt><trkpt lat="51.651997" lon="-2.360335"><ele>200.09</ele><time>2011-09-21T09:47:27Z</time></trkpt><trkpt lat="51.651941" lon="-2.360286"><ele>198.65</ele><time>2011-09-21T09:47:32Z</time></trkpt><trkpt lat="51.651897" lon="-2.360270"><ele>198.17</ele><time>2011-09-21T09:47:35Z</time></trkpt><trkpt lat="51.651821" lon="-2.360249"><ele>195.77</ele><time>2011-09-21T09:47:39Z</time></trkpt><trkpt lat="51.651727" lon="-2.360180"><ele>194.32</ele><time>2011-09-21T09:47:47Z</time></trkpt><trkpt lat="51.651647" lon="-2.360112"><ele>192.40</ele><time>2011-09-21T09:47:56Z</time></trkpt><trkpt lat="51.651548" lon="-2.360007"><ele>191.92</ele><time>2011-09-21T09:48:06Z</time></trkpt><trkpt lat="51.651473" lon="-2.359907"><ele>192.88</ele><time>2011-09-21T09:48:15Z</time></trkpt><trkpt lat="51.651389" lon="-2.359791"><ele>193.84</ele><time>2011-09-21T09:48:26Z</time></trkpt><trkpt lat="51.651281" lon="-2.359693"><ele>195.28</ele><time>2011-09-21T09:48:36Z</time></trkpt><trkpt lat="51.651205" lon="-2.359619"><ele>195.28</ele><time>2011-09-21T09:48:44Z</time></trkpt><trkpt lat="51.651133" lon="-2.359495"><ele>195.77</ele><time>2011-09-21T09:48:54Z</time></trkpt><trkpt lat="51.651075" lon="-2.359423"><ele>196.25</ele><time>2011-09-21T09:49:01Z</time></trkpt><trkpt lat="51.651002" lon="-2.359331"><ele>196.25</ele><time>2011-09-21T09:49:09Z</time></trkpt><trkpt lat="51.650934" lon="-2.359231"><ele>196.73</ele><time>2011-09-21T09:49:16Z</time></trkpt><trkpt lat="51.650905" lon="-2.359165"><ele>195.77</ele><time>2011-09-21T09:49:26Z</time></trkpt><trkpt lat="51.650927" lon="-2.359117"><ele>195.28</ele><time>2011-09-21T09:49:35Z</time></trkpt><trkpt lat="51.650982" lon="-2.359021"><ele>194.32</ele><time>2011-09-21T09:49:46Z</time></trkpt><trkpt lat="51.650995" lon="-2.358917"><ele>194.32</ele><time>2011-09-21T09:49:55Z</time></trkpt><trkpt lat="51.651035" lon="-2.358806"><ele>194.32</ele><time>2011-09-21T09:50:04Z</time></trkpt><trkpt lat="51.651068" lon="-2.358729"><ele>193.36</ele><time>2011-09-21T09:50:10Z</time></trkpt><trkpt lat="51.651138" lon="-2.358579"><ele>192.88</ele><time>2011-09-21T09:50:20Z</time></trkpt><trkpt lat="51.651178" lon="-2.358456"><ele>193.84</ele><time>2011-09-21T09:50:30Z</time></trkpt><trkpt lat="51.651234" lon="-2.358289"><ele>194.32</ele><time>2011-09-21T09:50:40Z</time></trkpt><trkpt lat="51.651291" lon="-2.358124"><ele>193.36</ele><time>2011-09-21T09:50:50Z</time></trkpt><trkpt lat="51.651342" lon="-2.357921"><ele>194.80</ele><time>2011-09-21T09:51:00Z</time></trkpt><trkpt lat="51.651362" lon="-2.357847"><ele>194.32</ele><time>2011-09-21T09:51:07Z</time></trkpt><trkpt lat="51.651377" lon="-2.357765"><ele>193.84</ele><time>2011-09-21T09:51:13Z</time></trkpt><trkpt lat="51.651357" lon="-2.357679"><ele>193.84</ele><time>2011-09-21T09:51:18Z</time></trkpt><trkpt lat="51.651348" lon="-2.357528"><ele>193.84</ele><time>2011-09-21T09:51:27Z</time></trkpt><trkpt lat="51.651354" lon="-2.357425"><ele>193.84</ele><time>2011-09-21T09:51:36Z</time></trkpt><trkpt lat="51.651321" lon="-2.357345"><ele>194.32</ele><time>2011-09-21T09:51:42Z</time></trkpt><trkpt lat="51.651300" lon="-2.357317"><ele>194.32</ele><time>2011-09-21T09:51:44Z</time></trkpt><trkpt lat="51.651162" lon="-2.357164"><ele>193.84</ele><time>2011-09-21T09:51:54Z</time></trkpt><trkpt lat="51.651067" lon="-2.357079"><ele>193.84</ele><time>2011-09-21T09:52:03Z</time></trkpt><trkpt lat="51.651012" lon="-2.356999"><ele>193.84</ele><time>2011-09-21T09:52:12Z</time></trkpt><trkpt lat="51.650979" lon="-2.356934"><ele>193.36</ele><time>2011-09-21T09:52:19Z</time></trkpt><trkpt lat="51.650974" lon="-2.356903"><ele>193.36</ele><time>2011-09-21T09:52:22Z</time></trkpt><trkpt lat="51.650945" lon="-2.356806"><ele>193.84</ele><time>2011-09-21T09:52:29Z</time></trkpt><trkpt lat="51.650912" lon="-2.356683"><ele>193.36</ele><time>2011-09-21T09:52:37Z</time></trkpt><trkpt lat="51.650857" lon="-2.356578"><ele>192.40</ele><time>2011-09-21T09:52:45Z</time></trkpt><trkpt lat="51.650796" lon="-2.356500"><ele>192.88</ele><time>2011-09-21T09:52:53Z</time></trkpt><trkpt lat="51.650727" lon="-2.356377"><ele>193.84</ele><time>2011-09-21T09:53:03Z</time></trkpt><trkpt lat="51.650647" lon="-2.356210"><ele>194.32</ele><time>2011-09-21T09:53:15Z</time></trkpt><trkpt lat="51.650572" lon="-2.356093"><ele>195.28</ele><time>2011-09-21T09:53:25Z</time></trkpt><trkpt lat="51.650511" lon="-2.355981"><ele>196.73</ele><time>2011-09-21T09:53:35Z</time></trkpt><trkpt lat="51.650431" lon="-2.355880"><ele>197.69</ele><time>2011-09-21T09:53:45Z</time></trkpt><trkpt lat="51.650337" lon="-2.355796"><ele>197.21</ele><time>2011-09-21T09:53:55Z</time></trkpt><trkpt lat="51.650268" lon="-2.355725"><ele>197.21</ele><time>2011-09-21T09:54:03Z</time></trkpt><trkpt lat="51.650189" lon="-2.355632"><ele>198.17</ele><time>2011-09-21T09:54:12Z</time></trkpt><trkpt lat="51.650106" lon="-2.355525"><ele>198.17</ele><time>2011-09-21T09:54:23Z</time></trkpt><trkpt lat="51.650030" lon="-2.355423"><ele>197.69</ele><time>2011-09-21T09:54:32Z</time></trkpt><trkpt lat="51.649951" lon="-2.355303"><ele>197.21</ele><time>2011-09-21T09:54:40Z</time></trkpt><trkpt lat="51.649919" lon="-2.355252"><ele>197.21</ele><time>2011-09-21T09:54:43Z</time></trkpt><trkpt lat="51.649853" lon="-2.355131"><ele>196.25</ele><time>2011-09-21T09:54:54Z</time></trkpt><trkpt lat="51.649785" lon="-2.355074"><ele>195.28</ele><time>2011-09-21T09:55:03Z</time></trkpt><trkpt lat="51.649716" lon="-2.354963"><ele>193.84</ele><time>2011-09-21T09:55:14Z</time></trkpt><trkpt lat="51.649711" lon="-2.354817"><ele>191.92</ele><time>2011-09-21T09:55:24Z</time></trkpt><trkpt lat="51.649646" lon="-2.354765"><ele>191.44</ele><time>2011-09-21T09:55:31Z</time></trkpt><trkpt lat="51.649610" lon="-2.354720"><ele>190.96</ele><time>2011-09-21T09:55:39Z</time></trkpt><trkpt lat="51.649533" lon="-2.354635"><ele>191.92</ele><time>2011-09-21T09:55:49Z</time></trkpt><trkpt lat="51.649498" lon="-2.354592"><ele>191.92</ele><time>2011-09-21T09:55:54Z</time></trkpt><trkpt lat="51.649420" lon="-2.354517"><ele>192.40</ele><time>2011-09-21T09:56:04Z</time></trkpt><trkpt lat="51.649359" lon="-2.354406"><ele>193.84</ele><time>2011-09-21T09:56:17Z</time></trkpt><trkpt lat="51.649345" lon="-2.354380"><ele>194.32</ele><time>2011-09-21T09:56:20Z</time></trkpt><trkpt lat="51.649222" lon="-2.354263"><ele>196.73</ele><time>2011-09-21T09:56:30Z</time></trkpt><trkpt lat="51.649159" lon="-2.354182"><ele>199.61</ele><time>2011-09-21T09:56:41Z</time></trkpt><trkpt lat="51.649085" lon="-2.354203"><ele>200.57</ele><time>2011-09-21T09:56:49Z</time></trkpt><trkpt lat="51.649072" lon="-2.354273"><ele>199.61</ele><time>2011-09-21T09:57:04Z</time></trkpt><trkpt lat="51.649024" lon="-2.354311"><ele>199.13</ele><time>2011-09-21T09:57:16Z</time></trkpt><trkpt lat="51.648979" lon="-2.354327"><ele>197.69</ele><time>2011-09-21T09:57:25Z</time></trkpt><trkpt lat="51.648922" lon="-2.354341"><ele>196.25</ele><time>2011-09-21T09:57:32Z</time></trkpt><trkpt lat="51.648873" lon="-2.354328"><ele>195.28</ele><time>2011-09-21T09:57:40Z</time></trkpt><trkpt lat="51.648826" lon="-2.354279"><ele>196.25</ele><time>2011-09-21T09:57:48Z</time></trkpt><trkpt lat="51.648786" lon="-2.354216"><ele>196.25</ele><time>2011-09-21T09:57:55Z</time></trkpt><trkpt lat="51.648730" lon="-2.354125"><ele>195.77</ele><time>2011-09-21T09:58:03Z</time></trkpt><trkpt lat="51.648681" lon="-2.354038"><ele>194.32</ele><time>2011-09-21T09:58:10Z</time></trkpt><trkpt lat="51.648636" lon="-2.353969"><ele>192.88</ele><time>2011-09-21T09:58:16Z</time></trkpt><trkpt lat="51.648585" lon="-2.353874"><ele>190.96</ele><time>2011-09-21T09:58:24Z</time></trkpt><trkpt lat="51.648517" lon="-2.353790"><ele>190.00</ele><time>2011-09-21T09:58:32Z</time></trkpt><trkpt lat="51.648510" lon="-2.353780"><ele>190.00</ele><time>2011-09-21T09:58:33Z</time></trkpt><trkpt lat="51.648465" lon="-2.353685"><ele>190.00</ele><time>2011-09-21T09:58:41Z</time></trkpt><trkpt lat="51.648442" lon="-2.353622"><ele>189.52</ele><time>2011-09-21T09:58:48Z</time></trkpt><trkpt lat="51.648392" lon="-2.353644"><ele>190.00</ele><time>2011-09-21T09:58:57Z</time></trkpt><trkpt lat="51.648361" lon="-2.353625"><ele>190.96</ele><time>2011-09-21T09:59:04Z</time></trkpt><trkpt lat="51.648335" lon="-2.353602"><ele>191.44</ele><time>2011-09-21T09:59:15Z</time></trkpt><trkpt lat="51.648318" lon="-2.353597"><ele>191.92</ele><time>2011-09-21T09:59:25Z</time></trkpt><trkpt lat="51.648337" lon="-2.353611"><ele>191.44</ele><time>2011-09-21T09:59:39Z</time></trkpt><trkpt lat="51.648369" lon="-2.353672"><ele>189.52</ele><time>2011-09-21T09:59:51Z</time></trkpt><trkpt lat="51.648373" lon="-2.353690"><ele>189.04</ele><time>2011-09-21T10:00:05Z</time></trkpt><trkpt lat="51.648372" lon="-2.353677"><ele>185.67</ele><time>2011-09-21T10:00:32Z</time></trkpt><trkpt lat="51.648371" lon="-2.353669"><ele>185.19</ele><time>2011-09-21T10:00:44Z</time></trkpt><trkpt lat="51.648389" lon="-2.353636"><ele>184.23</ele><time>2011-09-21T10:00:57Z</time></trkpt><trkpt lat="51.648385" lon="-2.353628"><ele>184.71</ele><time>2011-09-21T10:01:45Z</time></trkpt><trkpt lat="51.648372" lon="-2.353643"><ele>184.71</ele><time>2011-09-21T10:02:47Z</time></trkpt><trkpt lat="51.648391" lon="-2.353640"><ele>184.23</ele><time>2011-09-21T10:03:05Z</time></trkpt><trkpt lat="51.648391" lon="-2.353638"><ele>184.23</ele><time>2011-09-21T10:05:24Z</time></trkpt><trkpt lat="51.648392" lon="-2.353630"><ele>182.79</ele><time>2011-09-21T10:06:17Z</time></trkpt><trkpt lat="51.648394" lon="-2.353624"><ele>182.31</ele><time>2011-09-21T10:06:37Z</time></trkpt><trkpt lat="51.648391" lon="-2.353640"><ele>182.31</ele><time>2011-09-21T10:11:07Z</time></trkpt><trkpt lat="51.648377" lon="-2.353623"><ele>183.27</ele><time>2011-09-21T10:11:47Z</time></trkpt><trkpt lat="51.648367" lon="-2.353613"><ele>183.27</ele><time>2011-09-21T10:12:12Z</time></trkpt><trkpt lat="51.648380" lon="-2.353605"><ele>182.79</ele><time>2011-09-21T10:12:22Z</time></trkpt><trkpt lat="51.648391" lon="-2.353584"><ele>183.27</ele><time>2011-09-21T10:12:32Z</time></trkpt><trkpt lat="51.648414" lon="-2.353615"><ele>183.27</ele><time>2011-09-21T10:13:12Z</time></trkpt><trkpt lat="51.648388" lon="-2.353619"><ele>182.79</ele><time>2011-09-21T10:14:21Z</time></trkpt><trkpt lat="51.648331" lon="-2.353630"><ele>183.27</ele><time>2011-09-21T10:14:29Z</time></trkpt><trkpt lat="51.648324" lon="-2.353618"><ele>183.75</ele><time>2011-09-21T10:14:40Z</time></trkpt><trkpt lat="51.648284" lon="-2.353598"><ele>183.75</ele><time>2011-09-21T10:14:46Z</time></trkpt><trkpt lat="51.648207" lon="-2.353518"><ele>183.75</ele><time>2011-09-21T10:14:55Z</time></trkpt><trkpt lat="51.648119" lon="-2.353446"><ele>183.75</ele><time>2011-09-21T10:15:04Z</time></trkpt><trkpt lat="51.648103" lon="-2.353426"><ele>183.75</ele><time>2011-09-21T10:15:06Z</time></trkpt><trkpt lat="51.647998" lon="-2.353311"><ele>184.23</ele><time>2011-09-21T10:15:17Z</time></trkpt><trkpt lat="51.647937" lon="-2.353229"><ele>184.23</ele><time>2011-09-21T10:15:23Z</time></trkpt><trkpt lat="51.647832" lon="-2.353086"><ele>184.71</ele><time>2011-09-21T10:15:34Z</time></trkpt><trkpt lat="51.647750" lon="-2.352994"><ele>184.71</ele><time>2011-09-21T10:15:43Z</time></trkpt><trkpt lat="51.647626" lon="-2.352855"><ele>184.71</ele><time>2011-09-21T10:15:55Z</time></trkpt><trkpt lat="51.647511" lon="-2.352721"><ele>184.23</ele><time>2011-09-21T10:16:06Z</time></trkpt><trkpt lat="51.647393" lon="-2.352589"><ele>183.27</ele><time>2011-09-21T10:16:17Z</time></trkpt><trkpt lat="51.647274" lon="-2.352471"><ele>182.31</ele><time>2011-09-21T10:16:27Z</time></trkpt><trkpt lat="51.647214" lon="-2.352408"><ele>181.35</ele><time>2011-09-21T10:16:33Z</time></trkpt><trkpt lat="51.647112" lon="-2.352304"><ele>179.90</ele><time>2011-09-21T10:16:43Z</time></trkpt><trkpt lat="51.647068" lon="-2.352254"><ele>179.90</ele><time>2011-09-21T10:16:51Z</time></trkpt><trkpt lat="51.647058" lon="-2.352238"><ele>179.90</ele><time>2011-09-21T10:16:54Z</time></trkpt><trkpt lat="51.647048" lon="-2.352157"><ele>178.46</ele><time>2011-09-21T10:16:59Z</time></trkpt><trkpt lat="51.647048" lon="-2.352103"><ele>178.46</ele><time>2011-09-21T10:17:02Z</time></trkpt><trkpt lat="51.647040" lon="-2.352001"><ele>177.50</ele><time>2011-09-21T10:17:09Z</time></trkpt><trkpt lat="51.646945" lon="-2.351883"><ele>174.14</ele><time>2011-09-21T10:17:20Z</time></trkpt><trkpt lat="51.646865" lon="-2.351747"><ele>171.25</ele><time>2011-09-21T10:17:35Z</time></trkpt><trkpt lat="51.646794" lon="-2.351687"><ele>169.81</ele><time>2011-09-21T10:17:42Z</time></trkpt><trkpt lat="51.646685" lon="-2.351637"><ele>167.41</ele><time>2011-09-21T10:17:52Z</time></trkpt><trkpt lat="51.646613" lon="-2.351582"><ele>165.48</ele><time>2011-09-21T10:18:01Z</time></trkpt><trkpt lat="51.646523" lon="-2.351556"><ele>164.52</ele><time>2011-09-21T10:18:11Z</time></trkpt><trkpt lat="51.646457" lon="-2.351524"><ele>166.45</ele><time>2011-09-21T10:18:21Z</time></trkpt><trkpt lat="51.646446" lon="-2.351512"><ele>170.29</ele><time>2011-09-21T10:18:33Z</time></trkpt><trkpt lat="51.646425" lon="-2.351600"><ele>172.69</ele><time>2011-09-21T10:18:42Z</time></trkpt><trkpt lat="51.646399" lon="-2.351614"><ele>172.69</ele><time>2011-09-21T10:19:02Z</time></trkpt><trkpt lat="51.646337" lon="-2.351736"><ele>176.54</ele><time>2011-09-21T10:20:18Z</time></trkpt><trkpt lat="51.646263" lon="-2.351865"><ele>177.02</ele><time>2011-09-21T10:20:28Z</time></trkpt><trkpt lat="51.646238" lon="-2.352044"><ele>176.54</ele><time>2011-09-21T10:20:40Z</time></trkpt><trkpt lat="51.646172" lon="-2.352179"><ele>177.02</ele><time>2011-09-21T10:20:52Z</time></trkpt><trkpt lat="51.646159" lon="-2.352306"><ele>177.50</ele><time>2011-09-21T10:20:59Z</time></trkpt><trkpt lat="51.646151" lon="-2.352470"><ele>177.50</ele><time>2011-09-21T10:21:08Z</time></trkpt><trkpt lat="51.646133" lon="-2.352654"><ele>175.58</ele><time>2011-09-21T10:21:20Z</time></trkpt><trkpt lat="51.646146" lon="-2.352827"><ele>175.58</ele><time>2011-09-21T10:21:28Z</time></trkpt><trkpt lat="51.646161" lon="-2.352960"><ele>176.06</ele><time>2011-09-21T10:21:37Z</time></trkpt><trkpt lat="51.646190" lon="-2.353131"><ele>178.46</ele><time>2011-09-21T10:21:47Z</time></trkpt><trkpt lat="51.646210" lon="-2.353252"><ele>180.38</ele><time>2011-09-21T10:21:58Z</time></trkpt><trkpt lat="51.646210" lon="-2.353372"><ele>181.35</ele><time>2011-09-21T10:22:09Z</time></trkpt><trkpt lat="51.646243" lon="-2.353434"><ele>180.87</ele><time>2011-09-21T10:22:18Z</time></trkpt><trkpt lat="51.646224" lon="-2.353424"><ele>180.87</ele><time>2011-09-21T10:22:40Z</time></trkpt><trkpt lat="51.646239" lon="-2.353500"><ele>176.54</ele><time>2011-09-21T10:23:26Z</time></trkpt><trkpt lat="51.646257" lon="-2.353839"><ele>175.58</ele><time>2011-09-21T10:23:35Z</time></trkpt><trkpt lat="51.646242" lon="-2.354026"><ele>177.02</ele><time>2011-09-21T10:23:43Z</time></trkpt><trkpt lat="51.646241" lon="-2.354128"><ele>178.46</ele><time>2011-09-21T10:23:49Z</time></trkpt><trkpt lat="51.646265" lon="-2.354244"><ele>179.42</ele><time>2011-09-21T10:23:55Z</time></trkpt><trkpt lat="51.646204" lon="-2.354327"><ele>179.42</ele><time>2011-09-21T10:24:04Z</time></trkpt><trkpt lat="51.646180" lon="-2.354437"><ele>178.46</ele><time>2011-09-21T10:24:12Z</time></trkpt><trkpt lat="51.646166" lon="-2.354542"><ele>178.94</ele><time>2011-09-21T10:24:19Z</time></trkpt><trkpt lat="51.646154" lon="-2.354631"><ele>178.46</ele><time>2011-09-21T10:24:25Z</time></trkpt><trkpt lat="51.646163" lon="-2.354717"><ele>179.90</ele><time>2011-09-21T10:24:33Z</time></trkpt><trkpt lat="51.646175" lon="-2.354819"><ele>181.83</ele><time>2011-09-21T10:24:42Z</time></trkpt><trkpt lat="51.646203" lon="-2.354881"><ele>183.27</ele><time>2011-09-21T10:24:49Z</time></trkpt><trkpt lat="51.646248" lon="-2.354887"><ele>186.15</ele><time>2011-09-21T10:25:03Z</time></trkpt><trkpt lat="51.646267" lon="-2.354857"><ele>187.11</ele><time>2011-09-21T10:25:14Z</time></trkpt><trkpt lat="51.646250" lon="-2.354827"><ele>185.67</ele><time>2011-09-21T10:25:28Z</time></trkpt><trkpt lat="51.646237" lon="-2.354809"><ele>184.71</ele><time>2011-09-21T10:25:36Z</time></trkpt><trkpt lat="51.646240" lon="-2.354796"><ele>183.27</ele><time>2011-09-21T10:25:49Z</time></trkpt><trkpt lat="51.646235" lon="-2.354792"><ele>182.31</ele><time>2011-09-21T10:25:51Z</time></trkpt><trkpt lat="51.646203" lon="-2.354773"><ele>180.38</ele><time>2011-09-21T10:25:58Z</time></trkpt><trkpt lat="51.646201" lon="-2.354823"><ele>178.94</ele><time>2011-09-21T10:26:06Z</time></trkpt><trkpt lat="51.646158" lon="-2.354876"><ele>177.98</ele><time>2011-09-21T10:26:11Z</time></trkpt><trkpt lat="51.646101" lon="-2.354989"><ele>176.54</ele><time>2011-09-21T10:26:21Z</time></trkpt><trkpt lat="51.646046" lon="-2.355052"><ele>175.10</ele><time>2011-09-21T10:26:27Z</time></trkpt><trkpt lat="51.645930" lon="-2.355138"><ele>174.14</ele><time>2011-09-21T10:26:36Z</time></trkpt><trkpt lat="51.645895" lon="-2.355162"><ele>174.14</ele><time>2011-09-21T10:26:39Z</time></trkpt><trkpt lat="51.645858" lon="-2.355187"><ele>174.62</ele><time>2011-09-21T10:26:42Z</time></trkpt><trkpt lat="51.645835" lon="-2.355204"><ele>175.10</ele><time>2011-09-21T10:26:44Z</time></trkpt><trkpt lat="51.645795" lon="-2.355262"><ele>175.10</ele><time>2011-09-21T10:26:49Z</time></trkpt><trkpt lat="51.645782" lon="-2.355293"><ele>175.10</ele><time>2011-09-21T10:26:51Z</time></trkpt><trkpt lat="51.645742" lon="-2.355364"><ele>175.10</ele><time>2011-09-21T10:26:57Z</time></trkpt><trkpt lat="51.645675" lon="-2.355460"><ele>175.58</ele><time>2011-09-21T10:27:05Z</time></trkpt><trkpt lat="51.645582" lon="-2.355499"><ele>177.50</ele><time>2011-09-21T10:27:12Z</time></trkpt><trkpt lat="51.645502" lon="-2.355545"><ele>179.90</ele><time>2011-09-21T10:27:20Z</time></trkpt><trkpt lat="51.645456" lon="-2.355635"><ele>183.75</ele><time>2011-09-21T10:27:29Z</time></trkpt><trkpt lat="51.645394" lon="-2.355716"><ele>185.67</ele><time>2011-09-21T10:27:40Z</time></trkpt><trkpt lat="51.645386" lon="-2.355725"><ele>185.67</ele><time>2011-09-21T10:27:41Z</time></trkpt><trkpt lat="51.645280" lon="-2.355783"><ele>186.63</ele><time>2011-09-21T10:27:52Z</time></trkpt><trkpt lat="51.645222" lon="-2.355780"><ele>188.08</ele><time>2011-09-21T10:28:02Z</time></trkpt><trkpt lat="51.645207" lon="-2.355791"><ele>186.15</ele><time>2011-09-21T10:28:20Z</time></trkpt><trkpt lat="51.645163" lon="-2.355882"><ele>189.04</ele><time>2011-09-21T10:28:58Z</time></trkpt><trkpt lat="51.645144" lon="-2.356043"><ele>188.56</ele><time>2011-09-21T10:29:07Z</time></trkpt><trkpt lat="51.645161" lon="-2.356162"><ele>188.08</ele><time>2011-09-21T10:29:17Z</time></trkpt><trkpt lat="51.645150" lon="-2.356179"><ele>187.59</ele><time>2011-09-21T10:29:25Z</time></trkpt><trkpt lat="51.645095" lon="-2.356182"><ele>186.63</ele><time>2011-09-21T10:29:32Z</time></trkpt><trkpt lat="51.645031" lon="-2.356181"><ele>187.59</ele><time>2011-09-21T10:29:40Z</time></trkpt><trkpt lat="51.644978" lon="-2.356188"><ele>188.08</ele><time>2011-09-21T10:29:47Z</time></trkpt><trkpt lat="51.644966" lon="-2.356219"><ele>189.04</ele><time>2011-09-21T10:29:55Z</time></trkpt><trkpt lat="51.644969" lon="-2.356236"><ele>189.04</ele><time>2011-09-21T10:29:56Z</time></trkpt><trkpt lat="51.645018" lon="-2.356423"><ele>189.04</ele><time>2011-09-21T10:30:04Z</time></trkpt><trkpt lat="51.645050" lon="-2.356519"><ele>189.52</ele><time>2011-09-21T10:30:11Z</time></trkpt><trkpt lat="51.645091" lon="-2.356585"><ele>190.48</ele><time>2011-09-21T10:30:18Z</time></trkpt><trkpt lat="51.645135" lon="-2.356656"><ele>191.44</ele><time>2011-09-21T10:30:26Z</time></trkpt><trkpt lat="51.645162" lon="-2.356704"><ele>191.92</ele><time>2011-09-21T10:30:32Z</time></trkpt><trkpt lat="51.645199" lon="-2.356753"><ele>192.88</ele><time>2011-09-21T10:30:40Z</time></trkpt><trkpt lat="51.645265" lon="-2.356824"><ele>192.40</ele><time>2011-09-21T10:30:48Z</time></trkpt><trkpt lat="51.645327" lon="-2.356902"><ele>192.40</ele><time>2011-09-21T10:30:56Z</time></trkpt><trkpt lat="51.645382" lon="-2.356959"><ele>192.88</ele><time>2011-09-21T10:31:04Z</time></trkpt><trkpt lat="51.645407" lon="-2.356975"><ele>192.88</ele><time>2011-09-21T10:31:21Z</time></trkpt><trkpt lat="51.645439" lon="-2.357029"><ele>190.48</ele><time>2011-09-21T10:31:32Z</time></trkpt><trkpt lat="51.645465" lon="-2.357090"><ele>190.00</ele><time>2011-09-21T10:31:48Z</time></trkpt><trkpt lat="51.645585" lon="-2.357153"><ele>191.44</ele><time>2011-09-21T10:31:58Z</time></trkpt><trkpt lat="51.645697" lon="-2.357166"><ele>193.84</ele><time>2011-09-21T10:32:09Z</time></trkpt><trkpt lat="51.645730" lon="-2.357189"><ele>193.84</ele><time>2011-09-21T10:32:12Z</time></trkpt><trkpt lat="51.645797" lon="-2.357223"><ele>193.36</ele><time>2011-09-21T10:32:20Z</time></trkpt><trkpt lat="51.645895" lon="-2.357263"><ele>192.40</ele><time>2011-09-21T10:32:30Z</time></trkpt><trkpt lat="51.645963" lon="-2.357307"><ele>191.92</ele><time>2011-09-21T10:32:36Z</time></trkpt><trkpt lat="51.646027" lon="-2.357328"><ele>191.92</ele><time>2011-09-21T10:32:44Z</time></trkpt><trkpt lat="51.646134" lon="-2.357366"><ele>192.88</ele><time>2011-09-21T10:32:55Z</time></trkpt><trkpt lat="51.646206" lon="-2.357419"><ele>193.84</ele><time>2011-09-21T10:33:03Z</time></trkpt><trkpt lat="51.646312" lon="-2.357476"><ele>193.84</ele><time>2011-09-21T10:33:12Z</time></trkpt><trkpt lat="51.646368" lon="-2.357522"><ele>192.40</ele><time>2011-09-21T10:33:20Z</time></trkpt><trkpt lat="51.646491" lon="-2.357568"><ele>193.36</ele><time>2011-09-21T10:33:32Z</time></trkpt><trkpt lat="51.646580" lon="-2.357591"><ele>192.88</ele><time>2011-09-21T10:33:40Z</time></trkpt><trkpt lat="51.646641" lon="-2.357624"><ele>192.88</ele><time>2011-09-21T10:33:46Z</time></trkpt><trkpt lat="51.646720" lon="-2.357654"><ele>191.92</ele><time>2011-09-21T10:33:53Z</time></trkpt><trkpt lat="51.646814" lon="-2.357655"><ele>192.40</ele><time>2011-09-21T10:34:02Z</time></trkpt><trkpt lat="51.646877" lon="-2.357661"><ele>190.48</ele><time>2011-09-21T10:34:10Z</time></trkpt><trkpt lat="51.646951" lon="-2.357668"><ele>190.00</ele><time>2011-09-21T10:34:17Z</time></trkpt><trkpt lat="51.647052" lon="-2.357664"><ele>190.00</ele><time>2011-09-21T10:34:27Z</time></trkpt><trkpt lat="51.647173" lon="-2.357701"><ele>190.48</ele><time>2011-09-21T10:34:39Z</time></trkpt><trkpt lat="51.647240" lon="-2.357716"><ele>191.92</ele><time>2011-09-21T10:34:45Z</time></trkpt><trkpt lat="51.647314" lon="-2.357709"><ele>193.36</ele><time>2011-09-21T10:34:53Z</time></trkpt><trkpt lat="51.647382" lon="-2.357710"><ele>192.40</ele><time>2011-09-21T10:35:01Z</time></trkpt><trkpt lat="51.647461" lon="-2.357691"><ele>192.40</ele><time>2011-09-21T10:35:10Z</time></trkpt><trkpt lat="51.647533" lon="-2.357688"><ele>192.40</ele><time>2011-09-21T10:35:17Z</time></trkpt><trkpt lat="51.647604" lon="-2.357694"><ele>191.92</ele><time>2011-09-21T10:35:25Z</time></trkpt><trkpt lat="51.647693" lon="-2.357689"><ele>191.44</ele><time>2011-09-21T10:35:35Z</time></trkpt><trkpt lat="51.647784" lon="-2.357676"><ele>191.92</ele><time>2011-09-21T10:35:44Z</time></trkpt><trkpt lat="51.647890" lon="-2.357704"><ele>190.48</ele><time>2011-09-21T10:35:57Z</time></trkpt><trkpt lat="51.647970" lon="-2.357698"><ele>189.52</ele><time>2011-09-21T10:36:07Z</time></trkpt><trkpt lat="51.648076" lon="-2.357681"><ele>189.52</ele><time>2011-09-21T10:36:16Z</time></trkpt><trkpt lat="51.648153" lon="-2.357707"><ele>190.48</ele><time>2011-09-21T10:36:24Z</time></trkpt><trkpt lat="51.648227" lon="-2.357747"><ele>191.44</ele><time>2011-09-21T10:36:31Z</time></trkpt><trkpt lat="51.648291" lon="-2.357773"><ele>192.88</ele><time>2011-09-21T10:36:38Z</time></trkpt><trkpt lat="51.648392" lon="-2.357812"><ele>193.36</ele><time>2011-09-21T10:36:47Z</time></trkpt><trkpt lat="51.648466" lon="-2.357848"><ele>194.80</ele><time>2011-09-21T10:36:56Z</time></trkpt><trkpt lat="51.648558" lon="-2.357914"><ele>196.25</ele><time>2011-09-21T10:37:05Z</time></trkpt><trkpt lat="51.648643" lon="-2.357975"><ele>197.69</ele><time>2011-09-21T10:37:13Z</time></trkpt><trkpt lat="51.648710" lon="-2.358006"><ele>197.21</ele><time>2011-09-21T10:37:21Z</time></trkpt><trkpt lat="51.648794" lon="-2.358079"><ele>196.73</ele><time>2011-09-21T10:37:30Z</time></trkpt><trkpt lat="51.648894" lon="-2.358135"><ele>195.28</ele><time>2011-09-21T10:37:40Z</time></trkpt><trkpt lat="51.648930" lon="-2.358168"><ele>193.36</ele><time>2011-09-21T10:37:47Z</time></trkpt><trkpt lat="51.649011" lon="-2.358279"><ele>191.92</ele><time>2011-09-21T10:37:56Z</time></trkpt><trkpt lat="51.649086" lon="-2.358357"><ele>191.44</ele><time>2011-09-21T10:38:04Z</time></trkpt><trkpt lat="51.649163" lon="-2.358409"><ele>190.96</ele><time>2011-09-21T10:38:11Z</time></trkpt><trkpt lat="51.649235" lon="-2.358464"><ele>190.48</ele><time>2011-09-21T10:38:19Z</time></trkpt><trkpt lat="51.649310" lon="-2.358522"><ele>189.52</ele><time>2011-09-21T10:38:27Z</time></trkpt><trkpt lat="51.649362" lon="-2.358565"><ele>190.48</ele><time>2011-09-21T10:38:34Z</time></trkpt><trkpt lat="51.649448" lon="-2.358659"><ele>190.48</ele><time>2011-09-21T10:38:42Z</time></trkpt><trkpt lat="51.649551" lon="-2.358693"><ele>190.48</ele><time>2011-09-21T10:38:54Z</time></trkpt><trkpt lat="51.649652" lon="-2.358765"><ele>191.92</ele><time>2011-09-21T10:39:04Z</time></trkpt><trkpt lat="51.649717" lon="-2.358829"><ele>191.92</ele><time>2011-09-21T10:39:10Z</time></trkpt><trkpt lat="51.649772" lon="-2.358864"><ele>192.88</ele><time>2011-09-21T10:39:16Z</time></trkpt><trkpt lat="51.649861" lon="-2.358919"><ele>192.88</ele><time>2011-09-21T10:39:26Z</time></trkpt><trkpt lat="51.649930" lon="-2.358970"><ele>192.88</ele><time>2011-09-21T10:39:34Z</time></trkpt><trkpt lat="51.650022" lon="-2.358992"><ele>191.92</ele><time>2011-09-21T10:39:44Z</time></trkpt><trkpt lat="51.650084" lon="-2.359031"><ele>191.92</ele><time>2011-09-21T10:39:51Z</time></trkpt><trkpt lat="51.650173" lon="-2.359072"><ele>190.96</ele><time>2011-09-21T10:39:59Z</time></trkpt><trkpt lat="51.650230" lon="-2.359102"><ele>191.92</ele><time>2011-09-21T10:40:06Z</time></trkpt><trkpt lat="51.650334" lon="-2.359140"><ele>193.84</ele><time>2011-09-21T10:40:17Z</time></trkpt><trkpt lat="51.650402" lon="-2.359178"><ele>194.32</ele><time>2011-09-21T10:40:25Z</time></trkpt><trkpt lat="51.650493" lon="-2.359175"><ele>194.80</ele><time>2011-09-21T10:40:33Z</time></trkpt><trkpt lat="51.650543" lon="-2.359191"><ele>194.80</ele><time>2011-09-21T10:40:38Z</time></trkpt><trkpt lat="51.650645" lon="-2.359217"><ele>196.25</ele><time>2011-09-21T10:40:48Z</time></trkpt><trkpt lat="51.650738" lon="-2.359232"><ele>196.73</ele><time>2011-09-21T10:40:57Z</time></trkpt><trkpt lat="51.650803" lon="-2.359274"><ele>198.17</ele><time>2011-09-21T10:41:05Z</time></trkpt><trkpt lat="51.650831" lon="-2.359332"><ele>198.65</ele><time>2011-09-21T10:41:18Z</time></trkpt><trkpt lat="51.650871" lon="-2.359336"><ele>198.65</ele><time>2011-09-21T10:41:27Z</time></trkpt><trkpt lat="51.650853" lon="-2.359510"><ele>201.53</ele><time>2011-09-21T10:43:23Z</time></trkpt><trkpt lat="51.650875" lon="-2.359511"><ele>202.98</ele><time>2011-09-21T10:43:37Z</time></trkpt><trkpt lat="51.650924" lon="-2.359552"><ele>203.94</ele><time>2011-09-21T10:43:45Z</time></trkpt><trkpt lat="51.650982" lon="-2.359617"><ele>203.94</ele><time>2011-09-21T10:43:55Z</time></trkpt><trkpt lat="51.651077" lon="-2.359728"><ele>202.98</ele><time>2011-09-21T10:44:09Z</time></trkpt><trkpt lat="51.651186" lon="-2.359834"><ele>201.05</ele><time>2011-09-21T10:44:22Z</time></trkpt><trkpt lat="51.651332" lon="-2.359988"><ele>199.13</ele><time>2011-09-21T10:44:37Z</time></trkpt><trkpt lat="51.651428" lon="-2.360059"><ele>197.21</ele><time>2011-09-21T10:44:52Z</time></trkpt><trkpt lat="51.651515" lon="-2.360192"><ele>196.25</ele><time>2011-09-21T10:45:04Z</time></trkpt><trkpt lat="51.651592" lon="-2.360303"><ele>196.25</ele><time>2011-09-21T10:45:13Z</time></trkpt><trkpt lat="51.651697" lon="-2.360401"><ele>196.73</ele><time>2011-09-21T10:45:26Z</time></trkpt><trkpt lat="51.651779" lon="-2.360473"><ele>197.69</ele><time>2011-09-21T10:45:35Z</time></trkpt><trkpt lat="51.651840" lon="-2.360561"><ele>198.17</ele><time>2011-09-21T10:45:45Z</time></trkpt><trkpt lat="51.651900" lon="-2.360672"><ele>198.17</ele><time>2011-09-21T10:45:56Z</time></trkpt><trkpt lat="51.651967" lon="-2.360775"><ele>197.69</ele><time>2011-09-21T10:46:04Z</time></trkpt><trkpt lat="51.652049" lon="-2.360905"><ele>198.65</ele><time>2011-09-21T10:46:17Z</time></trkpt><trkpt lat="51.652137" lon="-2.361048"><ele>199.13</ele><time>2011-09-21T10:46:33Z</time></trkpt><trkpt lat="51.652180" lon="-2.361115"><ele>199.13</ele><time>2011-09-21T10:46:39Z</time></trkpt><trkpt lat="51.652264" lon="-2.361323"><ele>198.65</ele><time>2011-09-21T10:46:52Z</time></trkpt><trkpt lat="51.652296" lon="-2.361537"><ele>197.69</ele><time>2011-09-21T10:47:06Z</time></trkpt><trkpt lat="51.652340" lon="-2.361723"><ele>198.17</ele><time>2011-09-21T10:47:18Z</time></trkpt><trkpt lat="51.652341" lon="-2.361862"><ele>199.13</ele><time>2011-09-21T10:47:29Z</time></trkpt><trkpt lat="51.652349" lon="-2.362023"><ele>200.09</ele><time>2011-09-21T10:47:40Z</time></trkpt><trkpt lat="51.652359" lon="-2.362195"><ele>200.57</ele><time>2011-09-21T10:47:52Z</time></trkpt><trkpt lat="51.652352" lon="-2.362295"><ele>200.57</ele><time>2011-09-21T10:48:01Z</time></trkpt><trkpt lat="51.652326" lon="-2.362432"><ele>200.57</ele><time>2011-09-21T10:48:11Z</time></trkpt><trkpt lat="51.652343" lon="-2.362590"><ele>201.05</ele><time>2011-09-21T10:48:20Z</time></trkpt><trkpt lat="51.652362" lon="-2.362757"><ele>200.09</ele><time>2011-09-21T10:48:29Z</time></trkpt><trkpt lat="51.652369" lon="-2.362876"><ele>199.13</ele><time>2011-09-21T10:48:37Z</time></trkpt><trkpt lat="51.652375" lon="-2.363013"><ele>197.69</ele><time>2011-09-21T10:48:46Z</time></trkpt><trkpt lat="51.652329" lon="-2.363133"><ele>195.77</ele><time>2011-09-21T10:48:55Z</time></trkpt><trkpt lat="51.652302" lon="-2.363192"><ele>195.28</ele><time>2011-09-21T10:49:03Z</time></trkpt><trkpt lat="51.652272" lon="-2.363298"><ele>197.69</ele><time>2011-09-21T10:49:24Z</time></trkpt><trkpt lat="51.652310" lon="-2.363417"><ele>196.73</ele><time>2011-09-21T10:49:43Z</time></trkpt><trkpt lat="51.652287" lon="-2.363556"><ele>196.73</ele><time>2011-09-21T10:49:53Z</time></trkpt><trkpt lat="51.652271" lon="-2.363663"><ele>196.25</ele><time>2011-09-21T10:50:02Z</time></trkpt><trkpt lat="51.652266" lon="-2.363781"><ele>195.77</ele><time>2011-09-21T10:50:12Z</time></trkpt><trkpt lat="51.652269" lon="-2.363927"><ele>193.84</ele><time>2011-09-21T10:50:21Z</time></trkpt><trkpt lat="51.652232" lon="-2.364031"><ele>194.80</ele><time>2011-09-21T10:50:29Z</time></trkpt><trkpt lat="51.652152" lon="-2.364225"><ele>197.21</ele><time>2011-09-21T10:50:41Z</time></trkpt><trkpt lat="51.652156" lon="-2.364316"><ele>198.65</ele><time>2011-09-21T10:50:49Z</time></trkpt><trkpt lat="51.652178" lon="-2.364370"><ele>200.57</ele><time>2011-09-21T10:50:56Z</time></trkpt><trkpt lat="51.652210" lon="-2.364372"><ele>202.01</ele><time>2011-09-21T10:51:20Z</time></trkpt><trkpt lat="51.652168" lon="-2.364354"><ele>205.86</ele><time>2011-09-21T10:51:48Z</time></trkpt><trkpt lat="51.652069" lon="-2.364428"><ele>207.30</ele><time>2011-09-21T10:51:58Z</time></trkpt><trkpt lat="51.652024" lon="-2.364573"><ele>207.30</ele><time>2011-09-21T10:52:07Z</time></trkpt><trkpt lat="51.652017" lon="-2.364587"><ele>207.30</ele><time>2011-09-21T10:52:08Z</time></trkpt><trkpt lat="51.651993" lon="-2.364652"><ele>207.30</ele><time>2011-09-21T10:52:13Z</time></trkpt><trkpt lat="51.651927" lon="-2.364750"><ele>207.30</ele><time>2011-09-21T10:52:20Z</time></trkpt><trkpt lat="51.651893" lon="-2.364792"><ele>207.30</ele><time>2011-09-21T10:52:23Z</time></trkpt><trkpt lat="51.651851" lon="-2.364935"><ele>205.86</ele><time>2011-09-21T10:52:31Z</time></trkpt><trkpt lat="51.651769" lon="-2.365030"><ele>204.42</ele><time>2011-09-21T10:52:42Z</time></trkpt><trkpt lat="51.651716" lon="-2.365097"><ele>202.98</ele><time>2011-09-21T10:52:51Z</time></trkpt><trkpt lat="51.651690" lon="-2.365146"><ele>202.98</ele><time>2011-09-21T10:52:58Z</time></trkpt><trkpt lat="51.651676" lon="-2.365170"><ele>202.49</ele><time>2011-09-21T10:53:01Z</time></trkpt><trkpt lat="51.651649" lon="-2.365195"><ele>200.57</ele><time>2011-09-21T10:53:09Z</time></trkpt><trkpt lat="51.651609" lon="-2.365241"><ele>199.13</ele><time>2011-09-21T10:53:15Z</time></trkpt><trkpt lat="51.651547" lon="-2.365336"><ele>197.69</ele><time>2011-09-21T10:53:25Z</time></trkpt><trkpt lat="51.651504" lon="-2.365434"><ele>198.17</ele><time>2011-09-21T10:53:32Z</time></trkpt><trkpt lat="51.651500" lon="-2.365463"><ele>199.13</ele><time>2011-09-21T10:53:42Z</time></trkpt><trkpt lat="51.651502" lon="-2.365486"><ele>202.49</ele><time>2011-09-21T10:53:56Z</time></trkpt><trkpt lat="51.651555" lon="-2.365614"><ele>207.78</ele><time>2011-09-21T10:54:03Z</time></trkpt><trkpt lat="51.651545" lon="-2.365765"><ele>211.15</ele><time>2011-09-21T10:54:14Z</time></trkpt><trkpt lat="51.651576" lon="-2.365847"><ele>213.55</ele><time>2011-09-21T10:54:25Z</time></trkpt><trkpt lat="51.651617" lon="-2.365842"><ele>213.07</ele><time>2011-09-21T10:54:33Z</time></trkpt><trkpt lat="51.651633" lon="-2.365741"><ele>218.36</ele><time>2011-09-21T10:54:59Z</time></trkpt><trkpt lat="51.651606" lon="-2.365674"><ele>225.09</ele><time>2011-09-21T10:55:27Z</time></trkpt><trkpt lat="51.651571" lon="-2.365633"><ele>225.09</ele><time>2011-09-21T10:55:45Z</time></trkpt><trkpt lat="51.651503" lon="-2.365568"><ele>222.20</ele><time>2011-09-21T10:55:58Z</time></trkpt><trkpt lat="51.651479" lon="-2.365575"><ele>218.84</ele><time>2011-09-21T10:56:07Z</time></trkpt><trkpt lat="51.651468" lon="-2.365537"><ele>215.95</ele><time>2011-09-21T10:56:16Z</time></trkpt><trkpt lat="51.651452" lon="-2.365597"><ele>213.07</ele><time>2011-09-21T10:56:24Z</time></trkpt><trkpt lat="51.651445" lon="-2.365612"><ele>212.11</ele><time>2011-09-21T10:56:25Z</time></trkpt><trkpt lat="51.651391" lon="-2.365759"><ele>210.19</ele><time>2011-09-21T10:56:33Z</time></trkpt><trkpt lat="51.651358" lon="-2.365847"><ele>209.22</ele><time>2011-09-21T10:56:40Z</time></trkpt><trkpt lat="51.651320" lon="-2.365938"><ele>207.78</ele><time>2011-09-21T10:56:52Z</time></trkpt><trkpt lat="51.651329" lon="-2.366070"><ele>206.82</ele><time>2011-09-21T10:57:00Z</time></trkpt><trkpt lat="51.651294" lon="-2.366215"><ele>204.42</ele><time>2011-09-21T10:57:08Z</time></trkpt><trkpt lat="51.651290" lon="-2.366302"><ele>203.94</ele><time>2011-09-21T10:57:12Z</time></trkpt><trkpt lat="51.651336" lon="-2.366493"><ele>203.94</ele><time>2011-09-21T10:57:22Z</time></trkpt><trkpt lat="51.651337" lon="-2.366579"><ele>204.90</ele><time>2011-09-21T10:57:32Z</time></trkpt><trkpt lat="51.651381" lon="-2.366684"><ele>206.34</ele><time>2011-09-21T10:57:41Z</time></trkpt><trkpt lat="51.651394" lon="-2.366727"><ele>208.26</ele><time>2011-09-21T10:57:54Z</time></trkpt><trkpt lat="51.651410" lon="-2.366776"><ele>208.74</ele><time>2011-09-21T10:58:00Z</time></trkpt><trkpt lat="51.651463" lon="-2.366864"><ele>211.15</ele><time>2011-09-21T10:58:15Z</time></trkpt><trkpt lat="51.651573" lon="-2.366854"><ele>211.63</ele><time>2011-09-21T10:58:27Z</time></trkpt><trkpt lat="51.651700" lon="-2.366835"><ele>212.11</ele><time>2011-09-21T10:58:39Z</time></trkpt><trkpt lat="51.651820" lon="-2.366846"><ele>208.26</ele><time>2011-09-21T10:58:51Z</time></trkpt><trkpt lat="51.651910" lon="-2.366899"><ele>203.94</ele><time>2011-09-21T10:59:02Z</time></trkpt><trkpt lat="51.651994" lon="-2.366939"><ele>201.53</ele><time>2011-09-21T10:59:15Z</time></trkpt><trkpt lat="51.652094" lon="-2.367033"><ele>198.65</ele><time>2011-09-21T10:59:26Z</time></trkpt><trkpt lat="51.652243" lon="-2.367114"><ele>195.28</ele><time>2011-09-21T10:59:43Z</time></trkpt><trkpt lat="51.652376" lon="-2.367142"><ele>191.92</ele><time>2011-09-21T10:59:56Z</time></trkpt><trkpt lat="51.652526" lon="-2.367120"><ele>186.15</ele><time>2011-09-21T11:00:12Z</time></trkpt><trkpt lat="51.652673" lon="-2.367126"><ele>182.79</ele><time>2011-09-21T11:00:26Z</time></trkpt><trkpt lat="51.652790" lon="-2.367177"><ele>182.31</ele><time>2011-09-21T11:00:40Z</time></trkpt><trkpt lat="51.652827" lon="-2.367184"><ele>181.35</ele><time>2011-09-21T11:00:43Z</time></trkpt><trkpt lat="51.652975" lon="-2.367151"><ele>181.35</ele><time>2011-09-21T11:00:53Z</time></trkpt><trkpt lat="51.653102" lon="-2.367015"><ele>185.19</ele><time>2011-09-21T11:01:08Z</time></trkpt><trkpt lat="51.653197" lon="-2.367023"><ele>187.59</ele><time>2011-09-21T11:01:17Z</time></trkpt><trkpt lat="51.653305" lon="-2.367002"><ele>189.04</ele><time>2011-09-21T11:01:27Z</time></trkpt><trkpt lat="51.653449" lon="-2.366980"><ele>190.48</ele><time>2011-09-21T11:01:39Z</time></trkpt><trkpt lat="51.653556" lon="-2.366935"><ele>191.92</ele><time>2011-09-21T11:01:50Z</time></trkpt><trkpt lat="51.653565" lon="-2.366932"><ele>191.92</ele><time>2011-09-21T11:01:51Z</time></trkpt><trkpt lat="51.653718" lon="-2.366894"><ele>194.80</ele><time>2011-09-21T11:02:04Z</time></trkpt><trkpt lat="51.653867" lon="-2.366901"><ele>198.65</ele><time>2011-09-21T11:02:20Z</time></trkpt><trkpt lat="51.653962" lon="-2.366887"><ele>200.09</ele><time>2011-09-21T11:02:27Z</time></trkpt><trkpt lat="51.654124" lon="-2.366856"><ele>206.82</ele><time>2011-09-21T11:02:41Z</time></trkpt><trkpt lat="51.654277" lon="-2.366854"><ele>209.22</ele><time>2011-09-21T11:02:55Z</time></trkpt><trkpt lat="51.654407" lon="-2.366854"><ele>210.19</ele><time>2011-09-21T11:03:07Z</time></trkpt><trkpt lat="51.654453" lon="-2.366817"><ele>208.74</ele><time>2011-09-21T11:03:12Z</time></trkpt><trkpt lat="51.654553" lon="-2.366781"><ele>208.26</ele><time>2011-09-21T11:03:21Z</time></trkpt><trkpt lat="51.654622" lon="-2.366748"><ele>207.30</ele><time>2011-09-21T11:03:27Z</time></trkpt><trkpt lat="51.654744" lon="-2.366735"><ele>203.46</ele><time>2011-09-21T11:03:40Z</time></trkpt><trkpt lat="51.654860" lon="-2.366809"><ele>200.57</ele><time>2011-09-21T11:03:52Z</time></trkpt><trkpt lat="51.654949" lon="-2.366856"><ele>200.09</ele><time>2011-09-21T11:04:03Z</time></trkpt><trkpt lat="51.654961" lon="-2.366859"><ele>199.61</ele><time>2011-09-21T11:04:04Z</time></trkpt><trkpt lat="51.655067" lon="-2.366908"><ele>199.61</ele><time>2011-09-21T11:04:12Z</time></trkpt><trkpt lat="51.655158" lon="-2.366941"><ele>200.09</ele><time>2011-09-21T11:04:22Z</time></trkpt><trkpt lat="51.655269" lon="-2.366937"><ele>201.05</ele><time>2011-09-21T11:04:34Z</time></trkpt><trkpt lat="51.655317" lon="-2.366916"><ele>201.05</ele><time>2011-09-21T11:04:39Z</time></trkpt><trkpt lat="51.655414" lon="-2.366841"><ele>201.53</ele><time>2011-09-21T11:04:49Z</time></trkpt><trkpt lat="51.655439" lon="-2.366810"><ele>201.05</ele><time>2011-09-21T11:04:51Z</time></trkpt><trkpt lat="51.655503" lon="-2.366751"><ele>202.01</ele><time>2011-09-21T11:04:55Z</time></trkpt><trkpt lat="51.655584" lon="-2.366702"><ele>202.01</ele><time>2011-09-21T11:05:02Z</time></trkpt><trkpt lat="51.655620" lon="-2.366620"><ele>201.53</ele><time>2011-09-21T11:05:10Z</time></trkpt><trkpt lat="51.655631" lon="-2.366606"><ele>200.57</ele><time>2011-09-21T11:05:14Z</time></trkpt><trkpt lat="51.655730" lon="-2.366571"><ele>199.61</ele><time>2011-09-21T11:05:22Z</time></trkpt><trkpt lat="51.655801" lon="-2.366583"><ele>196.73</ele><time>2011-09-21T11:05:29Z</time></trkpt><trkpt lat="51.655888" lon="-2.366665"><ele>194.32</ele><time>2011-09-21T11:05:41Z</time></trkpt><trkpt lat="51.655972" lon="-2.366810"><ele>192.40</ele><time>2011-09-21T11:05:52Z</time></trkpt><trkpt lat="51.655995" lon="-2.366852"><ele>191.92</ele><time>2011-09-21T11:05:55Z</time></trkpt><trkpt lat="51.656124" lon="-2.366982"><ele>193.36</ele><time>2011-09-21T11:06:06Z</time></trkpt><trkpt lat="51.656181" lon="-2.367072"><ele>195.77</ele><time>2011-09-21T11:06:13Z</time></trkpt><trkpt lat="51.656210" lon="-2.367136"><ele>196.25</ele><time>2011-09-21T11:06:19Z</time></trkpt><trkpt lat="51.656217" lon="-2.367144"><ele>195.77</ele><time>2011-09-21T11:06:28Z</time></trkpt><trkpt lat="51.656265" lon="-2.367224"><ele>193.84</ele><time>2011-09-21T11:06:37Z</time></trkpt><trkpt lat="51.656264" lon="-2.367234"><ele>193.36</ele><time>2011-09-21T11:06:38Z</time></trkpt><trkpt lat="51.656239" lon="-2.367295"><ele>192.40</ele><time>2011-09-21T11:06:46Z</time></trkpt><trkpt lat="51.656243" lon="-2.367307"><ele>189.52</ele><time>2011-09-21T11:06:56Z</time></trkpt><trkpt lat="51.656350" lon="-2.367375"><ele>185.67</ele><time>2011-09-21T11:07:13Z</time></trkpt><trkpt lat="51.656390" lon="-2.367318"><ele>188.08</ele><time>2011-09-21T11:07:42Z</time></trkpt><trkpt lat="51.656405" lon="-2.367304"><ele>188.08</ele><time>2011-09-21T11:07:44Z</time></trkpt><trkpt lat="51.656458" lon="-2.367308"><ele>187.59</ele><time>2011-09-21T11:07:51Z</time></trkpt><trkpt lat="51.656490" lon="-2.367326"><ele>186.63</ele><time>2011-09-21T11:07:55Z</time></trkpt><trkpt lat="51.656539" lon="-2.367381"><ele>184.71</ele><time>2011-09-21T11:08:02Z</time></trkpt><trkpt lat="51.656546" lon="-2.367387"><ele>185.19</ele><time>2011-09-21T11:08:03Z</time></trkpt><trkpt lat="51.656591" lon="-2.367407"><ele>184.71</ele><time>2011-09-21T11:08:08Z</time></trkpt><trkpt lat="51.656646" lon="-2.367444"><ele>186.15</ele><time>2011-09-21T11:08:14Z</time></trkpt><trkpt lat="51.656678" lon="-2.367496"><ele>187.11</ele><time>2011-09-21T11:08:18Z</time></trkpt><trkpt lat="51.656787" lon="-2.367652"><ele>191.92</ele><time>2011-09-21T11:08:28Z</time></trkpt><trkpt lat="51.656876" lon="-2.367783"><ele>195.28</ele><time>2011-09-21T11:08:37Z</time></trkpt><trkpt lat="51.656967" lon="-2.367900"><ele>196.25</ele><time>2011-09-21T11:08:46Z</time></trkpt><trkpt lat="51.657140" lon="-2.368069"><ele>197.21</ele><time>2011-09-21T11:09:01Z</time></trkpt><trkpt lat="51.657251" lon="-2.368149"><ele>196.73</ele><time>2011-09-21T11:09:10Z</time></trkpt><trkpt lat="51.657361" lon="-2.368281"><ele>196.25</ele><time>2011-09-21T11:09:20Z</time></trkpt><trkpt lat="51.657500" lon="-2.368479"><ele>195.77</ele><time>2011-09-21T11:09:34Z</time></trkpt><trkpt lat="51.657632" lon="-2.368692"><ele>194.80</ele><time>2011-09-21T11:09:48Z</time></trkpt><trkpt lat="51.657737" lon="-2.368904"><ele>194.80</ele><time>2011-09-21T11:10:01Z</time></trkpt><trkpt lat="51.657819" lon="-2.369058"><ele>195.28</ele><time>2011-09-21T11:10:11Z</time></trkpt><trkpt lat="51.657923" lon="-2.369257"><ele>196.25</ele><time>2011-09-21T11:10:23Z</time></trkpt><trkpt lat="51.658031" lon="-2.369453"><ele>196.73</ele><time>2011-09-21T11:10:35Z</time></trkpt><trkpt lat="51.658100" lon="-2.369601"><ele>197.21</ele><time>2011-09-21T11:10:45Z</time></trkpt><trkpt lat="51.658180" lon="-2.369755"><ele>198.65</ele><time>2011-09-21T11:10:56Z</time></trkpt><trkpt lat="51.658298" lon="-2.369982"><ele>200.09</ele><time>2011-09-21T11:11:10Z</time></trkpt><trkpt lat="51.658374" lon="-2.370145"><ele>199.61</ele><time>2011-09-21T11:11:20Z</time></trkpt><trkpt lat="51.658437" lon="-2.370327"><ele>200.09</ele><time>2011-09-21T11:11:31Z</time></trkpt><trkpt lat="51.658440" lon="-2.370343"><ele>200.09</ele><time>2011-09-21T11:11:32Z</time></trkpt><trkpt lat="51.658483" lon="-2.370483"><ele>199.61</ele><time>2011-09-21T11:11:41Z</time></trkpt><trkpt lat="51.658490" lon="-2.370553"><ele>198.17</ele><time>2011-09-21T11:11:48Z</time></trkpt><trkpt lat="51.658491" lon="-2.370546"><ele>198.17</ele><time>2011-09-21T11:11:50Z</time></trkpt><trkpt lat="51.658551" lon="-2.370660"><ele>199.13</ele><time>2011-09-21T11:11:59Z</time></trkpt><trkpt lat="51.658580" lon="-2.370755"><ele>198.65</ele><time>2011-09-21T11:12:07Z</time></trkpt><trkpt lat="51.658587" lon="-2.370823"><ele>198.65</ele><time>2011-09-21T11:12:13Z</time></trkpt><trkpt lat="51.658640" lon="-2.371005"><ele>196.73</ele><time>2011-09-21T11:12:22Z</time></trkpt><trkpt lat="51.658668" lon="-2.371217"><ele>196.73</ele><time>2011-09-21T11:12:33Z</time></trkpt><trkpt lat="51.658703" lon="-2.371435"><ele>197.69</ele><time>2011-09-21T11:12:44Z</time></trkpt><trkpt lat="51.658732" lon="-2.371612"><ele>199.13</ele><time>2011-09-21T11:12:53Z</time></trkpt><trkpt lat="51.658770" lon="-2.371848"><ele>200.09</ele><time>2011-09-21T11:13:05Z</time></trkpt><trkpt lat="51.658778" lon="-2.371898"><ele>200.57</ele><time>2011-09-21T11:13:12Z</time></trkpt><trkpt lat="51.658778" lon="-2.371905"><ele>199.61</ele><time>2011-09-21T11:13:35Z</time></trkpt><trkpt lat="51.658789" lon="-2.371940"><ele>199.13</ele><time>2011-09-21T11:13:40Z</time></trkpt><trkpt lat="51.658808" lon="-2.372020"><ele>198.65</ele><time>2011-09-21T11:13:44Z</time></trkpt><trkpt lat="51.658824" lon="-2.372131"><ele>197.69</ele><time>2011-09-21T11:13:52Z</time></trkpt><trkpt lat="51.658820" lon="-2.372170"><ele>197.69</ele><time>2011-09-21T11:14:06Z</time></trkpt><trkpt lat="51.658824" lon="-2.372229"><ele>197.69</ele><time>2011-09-21T11:14:13Z</time></trkpt><trkpt lat="51.658832" lon="-2.372233"><ele>197.69</ele><time>2011-09-21T11:14:23Z</time></trkpt><trkpt lat="51.658850" lon="-2.372304"><ele>197.69</ele><time>2011-09-21T11:14:30Z</time></trkpt><trkpt lat="51.658909" lon="-2.372487"><ele>197.69</ele><time>2011-09-21T11:14:39Z</time></trkpt><trkpt lat="51.658920" lon="-2.372556"><ele>194.80</ele><time>2011-09-21T11:14:47Z</time></trkpt><trkpt lat="51.658894" lon="-2.372606"><ele>193.36</ele><time>2011-09-21T11:15:02Z</time></trkpt><trkpt lat="51.658946" lon="-2.372749"><ele>191.44</ele><time>2011-09-21T11:15:25Z</time></trkpt><trkpt lat="51.658963" lon="-2.372605"><ele>190.48</ele><time>2011-09-21T11:15:36Z</time></trkpt><trkpt lat="51.658959" lon="-2.372615"><ele>190.48</ele><time>2011-09-21T11:15:39Z</time></trkpt><trkpt lat="51.658865" lon="-2.372619"><ele>185.19</ele><time>2011-09-21T11:18:20Z</time></trkpt><trkpt lat="51.658888" lon="-2.372632"><ele>190.96</ele><time>2011-09-21T11:18:27Z</time></trkpt><trkpt lat="51.658896" lon="-2.372612"><ele>190.00</ele><time>2011-09-21T11:18:37Z</time></trkpt><trkpt lat="51.658949" lon="-2.372827"><ele>198.65</ele><time>2011-09-21T11:19:25Z</time></trkpt><trkpt lat="51.658946" lon="-2.372847"><ele>200.09</ele><time>2011-09-21T11:19:40Z</time></trkpt><trkpt lat="51.658877" lon="-2.372856"><ele>186.63</ele><time>2011-09-21T11:20:00Z</time></trkpt><trkpt lat="51.658939" lon="-2.372675"><ele>178.94</ele><time>2011-09-21T11:20:17Z</time></trkpt><trkpt lat="51.658901" lon="-2.372636"><ele>184.71</ele><time>2011-09-21T11:20:38Z</time></trkpt><trkpt lat="51.658900" lon="-2.372541"><ele>185.19</ele><time>2011-09-21T11:20:56Z</time></trkpt><trkpt lat="51.658921" lon="-2.372595"><ele>183.75</ele><time>2011-09-21T11:21:12Z</time></trkpt><trkpt lat="51.658907" lon="-2.372580"><ele>181.35</ele><time>2011-09-21T11:21:32Z</time></trkpt><trkpt lat="51.658834" lon="-2.372528"><ele>174.62</ele><time>2011-09-21T11:22:40Z</time></trkpt><trkpt lat="51.658930" lon="-2.372593"><ele>173.66</ele><time>2011-09-21T11:22:58Z</time></trkpt><trkpt lat="51.658819" lon="-2.373038"><ele>152.99</ele><time>2011-09-21T11:26:51Z</time></trkpt><trkpt lat="51.658809" lon="-2.372940"><ele>153.47</ele><time>2011-09-21T11:27:10Z</time></trkpt><trkpt lat="51.658796" lon="-2.372900"><ele>153.47</ele><time>2011-09-21T11:27:21Z</time></trkpt><trkpt lat="51.658737" lon="-2.373415"><ele>141.93</ele><time>2011-09-21T11:27:26Z</time></trkpt><trkpt lat="51.658746" lon="-2.373379"><ele>142.89</ele><time>2011-09-21T11:27:28Z</time></trkpt><trkpt lat="51.658821" lon="-2.373157"><ele>154.43</ele><time>2011-09-21T11:27:35Z</time></trkpt><trkpt lat="51.658883" lon="-2.372989"><ele>163.56</ele><time>2011-09-21T11:27:42Z</time></trkpt><trkpt lat="51.658883" lon="-2.372947"><ele>166.45</ele><time>2011-09-21T11:28:01Z</time></trkpt><trkpt lat="51.658937" lon="-2.372548"><ele>186.15</ele><time>2011-09-21T11:28:10Z</time></trkpt><trkpt lat="51.658998" lon="-2.372414"><ele>189.52</ele><time>2011-09-21T11:28:17Z</time></trkpt><trkpt lat="51.659050" lon="-2.372281"><ele>190.00</ele><time>2011-09-21T11:28:26Z</time></trkpt><trkpt lat="51.659093" lon="-2.372226"><ele>191.44</ele><time>2011-09-21T11:28:33Z</time></trkpt><trkpt lat="51.659189" lon="-2.372154"><ele>192.40</ele><time>2011-09-21T11:28:44Z</time></trkpt><trkpt lat="51.659208" lon="-2.372137"><ele>193.36</ele><time>2011-09-21T11:28:47Z</time></trkpt><trkpt lat="51.659235" lon="-2.372072"><ele>193.84</ele><time>2011-09-21T11:28:52Z</time></trkpt><trkpt lat="51.659249" lon="-2.371948"><ele>197.21</ele><time>2011-09-21T11:29:01Z</time></trkpt><trkpt lat="51.659316" lon="-2.371808"><ele>198.17</ele><time>2011-09-21T11:29:13Z</time></trkpt><trkpt lat="51.659365" lon="-2.371693"><ele>198.17</ele><time>2011-09-21T11:29:21Z</time></trkpt><trkpt lat="51.659435" lon="-2.371587"><ele>198.17</ele><time>2011-09-21T11:29:30Z</time></trkpt><trkpt lat="51.659506" lon="-2.371458"><ele>198.17</ele><time>2011-09-21T11:29:40Z</time></trkpt><trkpt lat="51.659513" lon="-2.371445"><ele>198.17</ele><time>2011-09-21T11:29:41Z</time></trkpt><trkpt lat="51.659557" lon="-2.371343"><ele>197.69</ele><time>2011-09-21T11:29:52Z</time></trkpt><trkpt lat="51.659553" lon="-2.371337"><ele>197.21</ele><time>2011-09-21T11:30:27Z</time></trkpt><trkpt lat="51.659607" lon="-2.371196"><ele>195.28</ele><time>2011-09-21T11:30:39Z</time></trkpt><trkpt lat="51.659703" lon="-2.371056"><ele>195.28</ele><time>2011-09-21T11:30:50Z</time></trkpt><trkpt lat="51.659767" lon="-2.370941"><ele>196.25</ele><time>2011-09-21T11:30:59Z</time></trkpt><trkpt lat="51.659772" lon="-2.370922"><ele>196.25</ele><time>2011-09-21T11:31:07Z</time></trkpt><trkpt lat="51.659765" lon="-2.370919"><ele>195.77</ele><time>2011-09-21T11:31:17Z</time></trkpt><trkpt lat="51.659753" lon="-2.370906"><ele>195.28</ele><time>2011-09-21T11:31:23Z</time></trkpt><trkpt lat="51.659734" lon="-2.370873"><ele>195.28</ele><time>2011-09-21T11:31:27Z</time></trkpt><trkpt lat="51.659710" lon="-2.370808"><ele>194.80</ele><time>2011-09-21T11:31:32Z</time></trkpt><trkpt lat="51.659655" lon="-2.370751"><ele>193.84</ele><time>2011-09-21T11:31:40Z</time></trkpt><trkpt lat="51.659615" lon="-2.370710"><ele>194.80</ele><time>2011-09-21T11:31:46Z</time></trkpt><trkpt lat="51.659518" lon="-2.370617"><ele>195.77</ele><time>2011-09-21T11:31:56Z</time></trkpt><trkpt lat="51.659415" lon="-2.370507"><ele>197.21</ele><time>2011-09-21T11:32:07Z</time></trkpt><trkpt lat="51.659330" lon="-2.370402"><ele>197.21</ele><time>2011-09-21T11:32:17Z</time></trkpt><trkpt lat="51.659308" lon="-2.370355"><ele>197.69</ele><time>2011-09-21T11:32:20Z</time></trkpt><trkpt lat="51.659250" lon="-2.370176"><ele>197.21</ele><time>2011-09-21T11:32:30Z</time></trkpt><trkpt lat="51.659241" lon="-2.369941"><ele>196.25</ele><time>2011-09-21T11:32:42Z</time></trkpt><trkpt lat="51.659286" lon="-2.369720"><ele>196.25</ele><time>2011-09-21T11:32:54Z</time></trkpt><trkpt lat="51.659346" lon="-2.369561"><ele>195.77</ele><time>2011-09-21T11:33:04Z</time></trkpt><trkpt lat="51.659421" lon="-2.369426"><ele>193.84</ele><time>2011-09-21T11:33:16Z</time></trkpt><trkpt lat="51.659430" lon="-2.369418"><ele>194.80</ele><time>2011-09-21T11:33:26Z</time></trkpt><trkpt lat="51.659432" lon="-2.369415"><ele>195.28</ele><time>2011-09-21T11:33:44Z</time></trkpt><trkpt lat="51.659518" lon="-2.369296"><ele>194.80</ele><time>2011-09-21T11:33:54Z</time></trkpt><trkpt lat="51.659564" lon="-2.369233"><ele>194.80</ele><time>2011-09-21T11:33:59Z</time></trkpt><trkpt lat="51.659659" lon="-2.369105"><ele>194.80</ele><time>2011-09-21T11:34:09Z</time></trkpt><trkpt lat="51.659710" lon="-2.369046"><ele>195.28</ele><time>2011-09-21T11:34:15Z</time></trkpt><trkpt lat="51.659782" lon="-2.369046"><ele>194.80</ele><time>2011-09-21T11:34:24Z</time></trkpt><trkpt lat="51.659825" lon="-2.369132"><ele>193.84</ele><time>2011-09-21T11:34:31Z</time></trkpt><trkpt lat="51.659831" lon="-2.369145"><ele>193.84</ele><time>2011-09-21T11:34:32Z</time></trkpt><trkpt lat="51.659860" lon="-2.369231"><ele>194.80</ele><time>2011-09-21T11:34:39Z</time></trkpt><trkpt lat="51.659928" lon="-2.369274"><ele>195.77</ele><time>2011-09-21T11:34:47Z</time></trkpt><trkpt lat="51.659952" lon="-2.369289"><ele>195.77</ele><time>2011-09-21T11:34:49Z</time></trkpt><trkpt lat="51.660088" lon="-2.369375"><ele>197.69</ele><time>2011-09-21T11:35:01Z</time></trkpt><trkpt lat="51.660133" lon="-2.369456"><ele>198.17</ele><time>2011-09-21T11:35:09Z</time></trkpt><trkpt lat="51.660202" lon="-2.369575"><ele>197.21</ele><time>2011-09-21T11:35:18Z</time></trkpt><trkpt lat="51.660237" lon="-2.369667"><ele>198.17</ele><time>2011-09-21T11:35:27Z</time></trkpt><trkpt lat="51.660292" lon="-2.369873"><ele>200.57</ele><time>2011-09-21T11:35:38Z</time></trkpt><trkpt lat="51.660320" lon="-2.370005"><ele>202.01</ele><time>2011-09-21T11:35:47Z</time></trkpt><trkpt lat="51.660343" lon="-2.370113"><ele>202.49</ele><time>2011-09-21T11:35:52Z</time></trkpt><trkpt lat="51.660361" lon="-2.370274"><ele>202.01</ele><time>2011-09-21T11:36:00Z</time></trkpt><trkpt lat="51.660346" lon="-2.370405"><ele>201.05</ele><time>2011-09-21T11:36:07Z</time></trkpt><trkpt lat="51.660350" lon="-2.370515"><ele>198.65</ele><time>2011-09-21T11:36:15Z</time></trkpt><trkpt lat="51.660357" lon="-2.370638"><ele>199.13</ele><time>2011-09-21T11:36:24Z</time></trkpt><trkpt lat="51.660344" lon="-2.370786"><ele>199.13</ele><time>2011-09-21T11:36:33Z</time></trkpt><trkpt lat="51.660356" lon="-2.370906"><ele>197.69</ele><time>2011-09-21T11:36:42Z</time></trkpt><trkpt lat="51.660351" lon="-2.370960"><ele>199.13</ele><time>2011-09-21T11:36:56Z</time></trkpt><trkpt lat="51.660324" lon="-2.371043"><ele>198.17</ele><time>2011-09-21T11:37:07Z</time></trkpt><trkpt lat="51.660282" lon="-2.371124"><ele>197.69</ele><time>2011-09-21T11:37:16Z</time></trkpt><trkpt lat="51.660264" lon="-2.371175"><ele>197.69</ele><time>2011-09-21T11:37:25Z</time></trkpt><trkpt lat="51.660257" lon="-2.371250"><ele>197.21</ele><time>2011-09-21T11:37:35Z</time></trkpt><trkpt lat="51.660190" lon="-2.371349"><ele>196.73</ele><time>2011-09-21T11:37:45Z</time></trkpt><trkpt lat="51.660187" lon="-2.371449"><ele>196.25</ele><time>2011-09-21T11:37:55Z</time></trkpt><trkpt lat="51.660127" lon="-2.371559"><ele>197.21</ele><time>2011-09-21T11:38:04Z</time></trkpt><trkpt lat="51.660118" lon="-2.371665"><ele>197.69</ele><time>2011-09-21T11:38:14Z</time></trkpt><trkpt lat="51.660135" lon="-2.371753"><ele>196.73</ele><time>2011-09-21T11:38:22Z</time></trkpt><trkpt lat="51.660142" lon="-2.371805"><ele>196.25</ele><time>2011-09-21T11:38:25Z</time></trkpt><trkpt lat="51.660107" lon="-2.371879"><ele>194.80</ele><time>2011-09-21T11:38:30Z</time></trkpt><trkpt lat="51.660098" lon="-2.371955"><ele>192.88</ele><time>2011-09-21T11:38:38Z</time></trkpt><trkpt lat="51.660092" lon="-2.372029"><ele>191.92</ele><time>2011-09-21T11:38:46Z</time></trkpt><trkpt lat="51.660041" lon="-2.372096"><ele>190.96</ele><time>2011-09-21T11:38:53Z</time></trkpt><trkpt lat="51.659946" lon="-2.372193"><ele>190.00</ele><time>2011-09-21T11:39:04Z</time></trkpt><trkpt lat="51.659923" lon="-2.372252"><ele>189.04</ele><time>2011-09-21T11:39:10Z</time></trkpt><trkpt lat="51.659818" lon="-2.372370"><ele>188.56</ele><time>2011-09-21T11:39:21Z</time></trkpt><trkpt lat="51.659753" lon="-2.372472"><ele>188.08</ele><time>2011-09-21T11:39:31Z</time></trkpt><trkpt lat="51.659683" lon="-2.372599"><ele>188.56</ele><time>2011-09-21T11:39:40Z</time></trkpt><trkpt lat="51.659575" lon="-2.372788"><ele>188.56</ele><time>2011-09-21T11:39:51Z</time></trkpt><trkpt lat="51.659539" lon="-2.372877"><ele>189.04</ele><time>2011-09-21T11:39:59Z</time></trkpt><trkpt lat="51.659542" lon="-2.372998"><ele>189.52</ele><time>2011-09-21T11:40:10Z</time></trkpt><trkpt lat="51.659540" lon="-2.373067"><ele>189.52</ele><time>2011-09-21T11:40:16Z</time></trkpt><trkpt lat="51.659523" lon="-2.373212"><ele>189.52</ele><time>2011-09-21T11:40:27Z</time></trkpt><trkpt lat="51.659510" lon="-2.373355"><ele>188.08</ele><time>2011-09-21T11:40:38Z</time></trkpt><trkpt lat="51.659482" lon="-2.373520"><ele>187.11</ele><time>2011-09-21T11:40:48Z</time></trkpt><trkpt lat="51.659455" lon="-2.373618"><ele>186.15</ele><time>2011-09-21T11:40:56Z</time></trkpt><trkpt lat="51.659439" lon="-2.373752"><ele>184.71</ele><time>2011-09-21T11:41:07Z</time></trkpt><trkpt lat="51.659458" lon="-2.373867"><ele>183.27</ele><time>2011-09-21T11:41:16Z</time></trkpt><trkpt lat="51.659459" lon="-2.373979"><ele>181.83</ele><time>2011-09-21T11:41:25Z</time></trkpt><trkpt lat="51.659464" lon="-2.374131"><ele>178.94</ele><time>2011-09-21T11:41:35Z</time></trkpt><trkpt lat="51.659449" lon="-2.374260"><ele>177.02</ele><time>2011-09-21T11:41:46Z</time></trkpt><trkpt lat="51.659428" lon="-2.374416"><ele>175.10</ele><time>2011-09-21T11:41:57Z</time></trkpt><trkpt lat="51.659431" lon="-2.374500"><ele>173.17</ele><time>2011-09-21T11:42:08Z</time></trkpt><trkpt lat="51.659410" lon="-2.374680"><ele>167.41</ele><time>2011-09-21T11:42:20Z</time></trkpt><trkpt lat="51.659373" lon="-2.374810"><ele>165.00</ele><time>2011-09-21T11:42:29Z</time></trkpt><trkpt lat="51.659386" lon="-2.374935"><ele>162.60</ele><time>2011-09-21T11:42:38Z</time></trkpt><trkpt lat="51.659377" lon="-2.375110"><ele>159.24</ele><time>2011-09-21T11:42:50Z</time></trkpt><trkpt lat="51.659315" lon="-2.375300"><ele>154.91</ele><time>2011-09-21T11:43:02Z</time></trkpt><trkpt lat="51.659296" lon="-2.375350"><ele>153.95</ele><time>2011-09-21T11:43:05Z</time></trkpt><trkpt lat="51.659272" lon="-2.375542"><ele>150.58</ele><time>2011-09-21T11:43:16Z</time></trkpt><trkpt lat="51.659266" lon="-2.375640"><ele>148.18</ele><time>2011-09-21T11:43:25Z</time></trkpt><trkpt lat="51.659259" lon="-2.375831"><ele>143.37</ele><time>2011-09-21T11:43:36Z</time></trkpt><trkpt lat="51.659235" lon="-2.376022"><ele>138.09</ele><time>2011-09-21T11:43:46Z</time></trkpt><trkpt lat="51.659234" lon="-2.376133"><ele>133.28</ele><time>2011-09-21T11:43:52Z</time></trkpt><trkpt lat="51.659275" lon="-2.376298"><ele>127.99</ele><time>2011-09-21T11:44:01Z</time></trkpt><trkpt lat="51.659329" lon="-2.376377"><ele>124.15</ele><time>2011-09-21T11:44:09Z</time></trkpt><trkpt lat="51.659349" lon="-2.376524"><ele>120.30</ele><time>2011-09-21T11:44:18Z</time></trkpt><trkpt lat="51.659378" lon="-2.376653"><ele>117.90</ele><time>2011-09-21T11:44:27Z</time></trkpt><trkpt lat="51.659436" lon="-2.376773"><ele>119.34</ele><time>2011-09-21T11:44:35Z</time></trkpt><trkpt lat="51.659563" lon="-2.376802"><ele>119.82</ele><time>2011-09-21T11:44:46Z</time></trkpt><trkpt lat="51.659585" lon="-2.376800"><ele>119.82</ele><time>2011-09-21T11:44:48Z</time></trkpt><trkpt lat="51.659676" lon="-2.376787"><ele>119.34</ele><time>2011-09-21T11:44:56Z</time></trkpt><trkpt lat="51.659760" lon="-2.376777"><ele>118.86</ele><time>2011-09-21T11:45:03Z</time></trkpt><trkpt lat="51.659891" lon="-2.376785"><ele>117.42</ele><time>2011-09-21T11:45:14Z</time></trkpt><trkpt lat="51.659992" lon="-2.376765"><ele>116.46</ele><time>2011-09-21T11:45:23Z</time></trkpt><trkpt lat="51.660089" lon="-2.376751"><ele>115.01</ele><time>2011-09-21T11:45:33Z</time></trkpt><trkpt lat="51.660152" lon="-2.376757"><ele>115.98</ele><time>2011-09-21T11:45:40Z</time></trkpt><trkpt lat="51.660163" lon="-2.376742"><ele>116.46</ele><time>2011-09-21T11:45:43Z</time></trkpt><trkpt lat="51.660241" lon="-2.376637"><ele>115.98</ele><time>2011-09-21T11:45:53Z</time></trkpt><trkpt lat="51.660300" lon="-2.376554"><ele>115.98</ele><time>2011-09-21T11:46:00Z</time></trkpt><trkpt lat="51.660344" lon="-2.376442"><ele>115.50</ele><time>2011-09-21T11:46:07Z</time></trkpt><trkpt lat="51.660388" lon="-2.376309"><ele>117.90</ele><time>2011-09-21T11:46:16Z</time></trkpt><trkpt lat="51.660369" lon="-2.376283"><ele>116.46</ele><time>2011-09-21T11:46:23Z</time></trkpt><trkpt lat="51.660369" lon="-2.376265"><ele>116.46</ele><time>2011-09-21T11:46:26Z</time></trkpt><trkpt lat="51.660369" lon="-2.376160"><ele>115.98</ele><time>2011-09-21T11:46:32Z</time></trkpt><trkpt lat="51.660416" lon="-2.375998"><ele>117.42</ele><time>2011-09-21T11:46:41Z</time></trkpt><trkpt lat="51.660430" lon="-2.375935"><ele>118.38</ele><time>2011-09-21T11:46:45Z</time></trkpt><trkpt lat="51.660434" lon="-2.375879"><ele>119.34</ele><time>2011-09-21T11:46:49Z</time></trkpt><trkpt lat="51.660382" lon="-2.375839"><ele>119.34</ele><time>2011-09-21T11:46:54Z</time></trkpt><trkpt lat="51.660307" lon="-2.375853"><ele>118.38</ele><time>2011-09-21T11:47:01Z</time></trkpt><trkpt lat="51.660301" lon="-2.375855"><ele>118.38</ele><time>2011-09-21T11:47:10Z</time></trkpt><trkpt lat="51.660299" lon="-2.375854"><ele>118.38</ele><time>2011-09-21T11:47:11Z</time></trkpt></trkseg></trk></gpx>